Wetterdaten: Donnerstag, 12.03.2026
Datum Zeit Temp. Aussen Temp. o. S. Temp +5cm Feuchte Auss Luftdruck Regen Sonnenschein Solar Windböen Empfang
12.03.2026 00:00 4,7 °C 3,3 °C 0,0 °C 93 % 1019,1 hPa 0,0 l/m² 0 min 0 W/m² 0,0 km/h (0 Bft) 97,87 %
12.03.2026 00:02 4,7 °C 3,3 °C 0,0 °C 93 % 1019,1 hPa 0,0 l/m² 0 min 0 W/m² 0,0 km/h (0 Bft) 9,52 %
12.03.2026 00:04 4,6 °C 3,3 °C 0,0 °C 93 % 1019,1 hPa 0,0 l/m² 0 min 0 W/m² 0,0 km/h (0 Bft) 97,87 %
12.03.2026 00:07 4,6 °C 3,3 °C 0,0 °C 93 % 1019,2 hPa 0,0 l/m² 0 min 0 W/m² 0,0 km/h (0 Bft) 100,00 %
12.03.2026 00:08 4,6 °C 3,3 °C 0,0 °C 93 % 1019,2 hPa 0,0 l/m² 0 min 0 W/m² 0,0 km/h (0 Bft) 100,00 %
12.03.2026 00:14 4,6 °C 3,9 °C 0,0 °C 93 % 1019,3 hPa 0,0 l/m² 0 min 0 W/m² 0,0 km/h (0 Bft) 98,78 %
12.03.2026 00:16 4,6 °C 3,9 °C 0,6 °C 93 % 1019,4 hPa 0,0 l/m² 0 min 0 W/m² 3,2 km/h (1 Bft) 100,00 %
12.03.2026 00:18 4,6 °C 3,9 °C 0,6 °C 93 % 1019,3 hPa 0,0 l/m² 0 min 0 W/m² 3,2 km/h (1 Bft) 97,87 %
12.03.2026 00:20 4,6 °C 3,9 °C 0,6 °C 93 % 1019,4 hPa 0,0 l/m² 0 min 0 W/m² 3,2 km/h (1 Bft) 100,00 %
12.03.2026 00:22 4,7 °C 3,9 °C 0,6 °C 94 % 1019,4 hPa 0,0 l/m² 0 min 0 W/m² 3,2 km/h (1 Bft) 100,00 %
12.03.2026 00:24 4,7 °C 4,4 °C 0,6 °C 94 % 1019,4 hPa 0,0 l/m² 0 min 0 W/m² 3,2 km/h (1 Bft) 100,00 %
12.03.2026 00:26 4,7 °C 4,4 °C 1,1 °C 94 % 1019,4 hPa 0,0 l/m² 0 min 0 W/m² 3,2 km/h (1 Bft) 95,74 %
12.03.2026 00:28 4,8 °C 4,4 °C 1,1 °C 94 % 1019,5 hPa 0,0 l/m² 0 min 0 W/m² 6,4 km/h (2 Bft) 97,87 %
12.03.2026 00:30 4,9 °C 4,4 °C 1,1 °C 94 % 1019,5 hPa 0,0 l/m² 0 min 0 W/m² 3,2 km/h (1 Bft) 97,87 %
12.03.2026 00:32 4,9 °C 4,4 °C 1,1 °C 94 % 1019,5 hPa 0,0 l/m² 0 min 0 W/m² 0,0 km/h (0 Bft) 100,00 %
12.03.2026 00:34 5,0 °C 4,4 °C 1,1 °C 94 % 1019,5 hPa 0,0 l/m² 0 min 0 W/m² 0,0 km/h (0 Bft) 100,00 %
12.03.2026 00:36 5,1 °C 4,4 °C 1,1 °C 94 % 1019,5 hPa 0,0 l/m² 0 min 0 W/m² 3,2 km/h (1 Bft) 97,83 %
12.03.2026 00:38 5,1 °C 4,4 °C 1,1 °C 95 % 1019,5 hPa 0,0 l/m² 0 min 0 W/m² 3,2 km/h (1 Bft) 97,87 %
12.03.2026 00:40 5,1 °C 4,4 °C 1,1 °C 95 % 1019,5 hPa 0,0 l/m² 0 min 0 W/m² 3,2 km/h (1 Bft) 97,87 %
12.03.2026 00:42 5,1 °C 4,4 °C 1,1 °C 95 % 1019,6 hPa 0,0 l/m² 0 min 0 W/m² 0,0 km/h (0 Bft) 97,87 %
12.03.2026 00:44 5,1 °C 4,4 °C 1,1 °C 95 % 1019,6 hPa 0,0 l/m² 0 min 0 W/m² 3,2 km/h (1 Bft) 95,74 %
12.03.2026 00:46 5,2 °C 4,4 °C 1,1 °C 95 % 1019,6 hPa 0,0 l/m² 0 min 0 W/m² 3,2 km/h (1 Bft) 97,83 %
12.03.2026 00:48 5,2 °C 4,4 °C 1,1 °C 95 % 1019,6 hPa 0,0 l/m² 0 min 0 W/m² 3,2 km/h (1 Bft) 93,62 %
12.03.2026 00:50 5,2 °C 4,4 °C 1,1 °C 95 % 1019,6 hPa 0,0 l/m² 0 min 0 W/m² 0,0 km/h (0 Bft) 97,87 %
12.03.2026 00:52 5,2 °C 4,4 °C 1,1 °C 95 % 1019,6 hPa 0,0 l/m² 0 min 0 W/m² 0,0 km/h (0 Bft) 97,87 %
12.03.2026 00:54 5,3 °C 4,4 °C 1,1 °C 95 % 1019,6 hPa 0,0 l/m² 0 min 0 W/m² 0,0 km/h (0 Bft) 95,74 %
12.03.2026 00:56 5,3 °C 4,4 °C 1,1 °C 95 % 1019,5 hPa 0,0 l/m² 0 min 0 W/m² 3,2 km/h (1 Bft) 95,74 %
12.03.2026 00:58 5,3 °C 4,4 °C 1,1 °C 95 % 1019,6 hPa 0,0 l/m² 0 min 0 W/m² 6,4 km/h (2 Bft) 95,65 %
12.03.2026 01:00 5,3 °C 4,4 °C 1,1 °C 95 % 1019,5 hPa 0,0 l/m² 0 min 0 W/m² 3,2 km/h (1 Bft) 97,87 %
12.03.2026 01:02 5,3 °C 4,4 °C 1,1 °C 95 % 1019,6 hPa 0,0 l/m² 0 min 0 W/m² 6,4 km/h (2 Bft) 95,74 %
12.03.2026 01:04 5,3 °C 5,0 °C 1,1 °C 95 % 1019,6 hPa 0,0 l/m² 0 min 0 W/m² 6,4 km/h (2 Bft) 97,67 %
12.03.2026 01:06 5,4 °C 5,0 °C 1,1 °C 95 % 1019,6 hPa 0,0 l/m² 0 min 0 W/m² 9,7 km/h (2 Bft) 93,62 %
12.03.2026 01:08 5,4 °C 5,0 °C 1,1 °C 95 % 1019,6 hPa 0,0 l/m² 0 min 0 W/m² 9,7 km/h (2 Bft) 97,83 %
12.03.2026 01:10 5,4 °C 5,0 °C 1,1 °C 95 % 1019,6 hPa 0,0 l/m² 0 min 0 W/m² 9,7 km/h (2 Bft) 97,87 %
12.03.2026 01:12 5,4 °C 5,0 °C 1,1 °C 95 % 1019,6 hPa 0,0 l/m² 0 min 0 W/m² 9,7 km/h (2 Bft) 95,74 %
12.03.2026 01:14 5,4 °C 5,0 °C 1,1 °C 95 % 1019,7 hPa 0,0 l/m² 0 min 0 W/m² 0,0 km/h (0 Bft) 97,87 %
12.03.2026 01:16 5,4 °C 5,0 °C 1,1 °C 95 % 1019,7 hPa 0,0 l/m² 0 min 0 W/m² 9,7 km/h (2 Bft) 97,87 %
12.03.2026 01:18 5,4 °C 5,0 °C 1,1 °C 95 % 1019,7 hPa 0,0 l/m² 0 min 0 W/m² 3,2 km/h (1 Bft) 95,74 %
12.03.2026 01:20 5,5 °C 5,0 °C 1,1 °C 95 % 1019,8 hPa 0,0 l/m² 0 min 0 W/m² 9,7 km/h (2 Bft) 97,83 %
12.03.2026 01:22 5,5 °C 5,0 °C 1,1 °C 95 % 1019,7 hPa 0,0 l/m² 0 min 0 W/m² 3,2 km/h (1 Bft) 97,87 %
12.03.2026 01:24 5,5 °C 5,0 °C 1,1 °C 95 % 1019,7 hPa 0,0 l/m² 0 min 0 W/m² 6,4 km/h (2 Bft) 97,87 %
12.03.2026 01:26 5,5 °C 5,0 °C 1,1 °C 95 % 1019,8 hPa 0,0 l/m² 0 min 0 W/m² 6,4 km/h (2 Bft) 93,62 %
12.03.2026 01:28 5,5 °C 5,0 °C 1,1 °C 95 % 1019,8 hPa 0,0 l/m² 0 min 0 W/m² 6,4 km/h (2 Bft) 97,87 %
12.03.2026 01:30 5,5 °C 4,4 °C 1,1 °C 95 % 1019,8 hPa 0,0 l/m² 0 min 0 W/m² 3,2 km/h (1 Bft) 95,74 %
12.03.2026 01:32 5,5 °C 4,4 °C 1,1 °C 95 % 1019,8 hPa 0,0 l/m² 0 min 0 W/m² 0,0 km/h (0 Bft) 95,65 %
12.03.2026 01:34 5,5 °C 4,4 °C 1,1 °C 95 % 1019,9 hPa 0,0 l/m² 0 min 0 W/m² 3,2 km/h (1 Bft) 95,74 %
12.03.2026 01:36 5,5 °C 4,4 °C 1,1 °C 95 % 1019,9 hPa 0,0 l/m² 0 min 0 W/m² 6,4 km/h (2 Bft) 95,74 %
12.03.2026 01:38 5,5 °C 4,4 °C 1,1 °C 95 % 1019,9 hPa 0,0 l/m² 0 min 0 W/m² 6,4 km/h (2 Bft) 93,62 %
12.03.2026 01:40 5,5 °C 4,4 °C 1,1 °C 95 % 1020,0 hPa 0,0 l/m² 0 min 0 W/m² 3,2 km/h (1 Bft) 93,62 %
12.03.2026 01:42 5,5 °C 4,4 °C 1,1 °C 95 % 1020,0 hPa 0,0 l/m² 0 min 0 W/m² 9,7 km/h (2 Bft) 97,87 %
12.03.2026 01:44 5,5 °C 4,4 °C 1,1 °C 95 % 1020,0 hPa 0,0 l/m² 0 min 0 W/m² 9,7 km/h (2 Bft) 97,83 %
12.03.2026 01:46 5,5 °C 4,4 °C 1,1 °C 95 % 1020,1 hPa 0,0 l/m² 0 min 0 W/m² 3,2 km/h (1 Bft) 97,87 %
12.03.2026 01:48 5,5 °C 5,0 °C 1,1 °C 95 % 1020,1 hPa 0,0 l/m² 0 min 0 W/m² 9,7 km/h (2 Bft) 97,87 %
12.03.2026 01:50 5,5 °C 5,0 °C 1,1 °C 95 % 1020,1 hPa 0,0 l/m² 0 min 0 W/m² 6,4 km/h (2 Bft) 95,74 %
12.03.2026 01:52 5,6 °C 5,0 °C 1,1 °C 95 % 1020,1 hPa 0,0 l/m² 0 min 0 W/m² 6,4 km/h (2 Bft) 97,87 %
12.03.2026 01:54 5,6 °C 5,0 °C 1,1 °C 95 % 1020,1 hPa 0,0 l/m² 0 min 0 W/m² 3,2 km/h (1 Bft) 95,74 %
12.03.2026 01:56 5,6 °C 5,0 °C 1,1 °C 95 % 1020,1 hPa 0,0 l/m² 0 min 0 W/m² 6,4 km/h (2 Bft) 95,65 %
12.03.2026 01:58 5,6 °C 5,0 °C 1,1 °C 95 % 1020,1 hPa 0,0 l/m² 0 min 0 W/m² 12,9 km/h (3 Bft) 97,87 %
12.03.2026 02:00 5,6 °C 5,0 °C 1,1 °C 95 % 1020,0 hPa 0,0 l/m² 0 min 0 W/m² 9,7 km/h (2 Bft) 85,11 %
12.03.2026 02:02 5,6 °C 5,0 °C 1,1 °C 95 % 1020,1 hPa 0,0 l/m² 0 min 0 W/m² 3,2 km/h (1 Bft) 44,00 %
12.03.2026 02:04 5,6 °C 5,0 °C 1,1 °C 95 % 1020,1 hPa 0,0 l/m² 0 min 0 W/m² 6,4 km/h (2 Bft) 97,96 %
12.03.2026 02:06 5,6 °C 5,0 °C 1,1 °C 95 % 1020,1 hPa 0,0 l/m² 0 min 0 W/m² 6,4 km/h (2 Bft) 97,83 %
12.03.2026 02:08 5,6 °C 5,0 °C 1,1 °C 95 % 1020,1 hPa 0,0 l/m² 0 min 0 W/m² 6,4 km/h (2 Bft) 97,87 %
12.03.2026 02:10 5,6 °C 5,0 °C 1,1 °C 95 % 1020,1 hPa 0,0 l/m² 0 min 0 W/m² 6,4 km/h (2 Bft) 95,74 %
12.03.2026 02:14 5,7 °C 5,0 °C 1,1 °C 95 % 1020,1 hPa 0,0 l/m² 0 min 0 W/m² 6,4 km/h (2 Bft) 100,00 %
12.03.2026 02:16 5,7 °C 5,0 °C 1,1 °C 95 % 1020,1 hPa 0,0 l/m² 0 min 0 W/m² 3,2 km/h (1 Bft) 93,62 %
12.03.2026 02:18 5,7 °C 5,0 °C 1,1 °C 95 % 1020,1 hPa 0,0 l/m² 0 min 0 W/m² 6,4 km/h (2 Bft) 97,83 %
12.03.2026 02:20 5,7 °C 5,0 °C 1,1 °C 95 % 1020,1 hPa 0,0 l/m² 0 min 0 W/m² 9,7 km/h (2 Bft) 95,74 %
12.03.2026 02:22 5,7 °C 5,0 °C 1,7 °C 95 % 1020,2 hPa 0,0 l/m² 0 min 0 W/m² 9,7 km/h (2 Bft) 95,74 %
12.03.2026 02:24 5,7 °C 5,0 °C 1,7 °C 95 % 1020,2 hPa 0,0 l/m² 0 min 0 W/m² 6,4 km/h (2 Bft) 95,74 %
12.03.2026 02:26 5,7 °C 5,0 °C 1,7 °C 95 % 1020,3 hPa 0,0 l/m² 0 min 0 W/m² 6,4 km/h (2 Bft) 95,74 %
12.03.2026 02:28 5,7 °C 5,0 °C 1,7 °C 95 % 1020,2 hPa 0,0 l/m² 0 min 0 W/m² 9,7 km/h (2 Bft) 97,87 %
12.03.2026 02:30 5,7 °C 5,0 °C 1,7 °C 95 % 1020,3 hPa 0,0 l/m² 0 min 0 W/m² 6,4 km/h (2 Bft) 97,83 %
12.03.2026 02:32 5,8 °C 5,0 °C 1,7 °C 95 % 1020,3 hPa 0,0 l/m² 0 min 0 W/m² 6,4 km/h (2 Bft) 95,74 %
12.03.2026 02:34 5,8 °C 5,0 °C 1,7 °C 95 % 1020,3 hPa 0,0 l/m² 0 min 0 W/m² 9,7 km/h (2 Bft) 97,87 %
12.03.2026 02:36 5,8 °C 5,0 °C 1,7 °C 95 % 1020,3 hPa 0,0 l/m² 0 min 0 W/m² 12,9 km/h (3 Bft) 93,62 %
12.03.2026 02:38 5,8 °C 5,0 °C 1,7 °C 95 % 1020,4 hPa 0,0 l/m² 0 min 0 W/m² 9,7 km/h (2 Bft) 97,87 %
12.03.2026 02:40 5,8 °C 5,0 °C 1,7 °C 95 % 1020,3 hPa 0,0 l/m² 0 min 0 W/m² 9,7 km/h (2 Bft) 97,87 %
12.03.2026 02:42 5,8 °C 5,0 °C 1,1 °C 95 % 1020,3 hPa 0,0 l/m² 0 min 0 W/m² 6,4 km/h (2 Bft) 97,83 %
12.03.2026 02:44 5,8 °C 5,0 °C 1,7 °C 95 % 1020,4 hPa 0,0 l/m² 0 min 0 W/m² 6,4 km/h (2 Bft) 97,87 %
12.03.2026 02:46 5,8 °C 5,0 °C 1,7 °C 95 % 1020,4 hPa 0,0 l/m² 0 min 0 W/m² 9,7 km/h (2 Bft) 97,87 %
12.03.2026 02:48 5,8 °C 5,0 °C 1,7 °C 95 % 1020,4 hPa 0,0 l/m² 0 min 0 W/m² 6,4 km/h (2 Bft) 97,87 %
12.03.2026 02:50 5,8 °C 5,0 °C 1,7 °C 95 % 1020,4 hPa 0,0 l/m² 0 min 0 W/m² 6,4 km/h (2 Bft) 100,00 %
12.03.2026 02:52 5,8 °C 5,0 °C 1,7 °C 95 % 1020,4 hPa 0,0 l/m² 0 min 0 W/m² 9,7 km/h (2 Bft) 97,87 %
12.03.2026 02:54 5,8 °C 5,0 °C 1,7 °C 95 % 1020,4 hPa 0,0 l/m² 0 min 0 W/m² 3,2 km/h (1 Bft) 100,00 %
12.03.2026 02:56 5,8 °C 5,0 °C 1,7 °C 95 % 1020,4 hPa 0,0 l/m² 0 min 0 W/m² 9,7 km/h (2 Bft) 100,00 %
12.03.2026 02:58 5,8 °C 5,0 °C 1,1 °C 95 % 1020,5 hPa 0,0 l/m² 0 min 0 W/m² 3,2 km/h (1 Bft) 100,00 %
12.03.2026 03:00 5,7 °C 5,0 °C 1,1 °C 95 % 1020,5 hPa 0,0 l/m² 0 min 0 W/m² 3,2 km/h (1 Bft) 100,00 %
12.03.2026 03:02 5,7 °C 5,0 °C 1,1 °C 95 % 1020,5 hPa 0,0 l/m² 0 min 0 W/m² 6,4 km/h (2 Bft) 100,00 %
12.03.2026 03:04 5,7 °C 5,0 °C 1,1 °C 95 % 1020,4 hPa 0,0 l/m² 0 min 0 W/m² 12,9 km/h (3 Bft) 97,87 %
12.03.2026 03:06 5,7 °C 5,0 °C 1,1 °C 95 % 1020,5 hPa 0,0 l/m² 0 min 0 W/m² 12,9 km/h (3 Bft) 100,00 %
12.03.2026 03:08 5,7 °C 5,0 °C 1,1 °C 95 % 1020,5 hPa 0,0 l/m² 0 min 0 W/m² 16,1 km/h (3 Bft) 100,00 %
12.03.2026 03:10 5,7 °C 5,0 °C 1,1 °C 95 % 1020,5 hPa 0,0 l/m² 0 min 0 W/m² 3,2 km/h (1 Bft) 100,00 %
12.03.2026 03:12 5,7 °C 5,0 °C 1,1 °C 95 % 1020,5 hPa 0,0 l/m² 0 min 0 W/m² 12,9 km/h (3 Bft) 97,87 %
12.03.2026 03:14 5,7 °C 5,0 °C 1,1 °C 95 % 1020,6 hPa 0,0 l/m² 0 min 0 W/m² 9,7 km/h (2 Bft) 95,74 %
12.03.2026 03:16 5,7 °C 5,0 °C 1,1 °C 95 % 1020,6 hPa 0,0 l/m² 0 min 0 W/m² 6,4 km/h (2 Bft) 97,83 %
12.03.2026 03:18 5,7 °C 5,0 °C 1,1 °C 94 % 1020,5 hPa 0,0 l/m² 0 min 0 W/m² 6,4 km/h (2 Bft) 97,87 %
12.03.2026 03:20 5,7 °C 5,0 °C 1,1 °C 94 % 1020,5 hPa 0,0 l/m² 0 min 0 W/m² 6,4 km/h (2 Bft) 97,87 %
12.03.2026 03:22 5,7 °C 4,4 °C 1,1 °C 94 % 1020,5 hPa 0,0 l/m² 0 min 0 W/m² 9,7 km/h (2 Bft) 97,87 %
12.03.2026 03:24 5,7 °C 5,0 °C 1,1 °C 94 % 1020,5 hPa 0,0 l/m² 0 min 0 W/m² 6,4 km/h (2 Bft) 91,49 %
12.03.2026 03:26 5,7 °C 4,4 °C 1,1 °C 94 % 1020,6 hPa 0,0 l/m² 0 min 0 W/m² 6,4 km/h (2 Bft) 95,74 %
12.03.2026 03:28 5,6 °C 5,0 °C 1,1 °C 94 % 1020,6 hPa 0,0 l/m² 0 min 0 W/m² 12,9 km/h (3 Bft) 97,83 %
12.03.2026 03:30 5,7 °C 5,0 °C 1,1 °C 94 % 1020,5 hPa 0,0 l/m² 0 min 0 W/m² 12,9 km/h (3 Bft) 95,74 %
12.03.2026 03:32 5,6 °C 5,0 °C 1,1 °C 94 % 1020,5 hPa 0,0 l/m² 0 min 0 W/m² 12,9 km/h (3 Bft) 97,87 %
12.03.2026 03:34 5,6 °C 5,0 °C 1,1 °C 94 % 1020,5 hPa 0,0 l/m² 0 min 0 W/m² 9,7 km/h (2 Bft) 93,62 %
12.03.2026 03:36 5,6 °C 4,4 °C 1,1 °C 94 % 1020,5 hPa 0,0 l/m² 0 min 0 W/m² 9,7 km/h (2 Bft) 97,87 %
12.03.2026 03:38 5,6 °C 5,0 °C 1,1 °C 94 % 1020,5 hPa 0,0 l/m² 0 min 0 W/m² 12,9 km/h (3 Bft) 97,87 %
12.03.2026 03:40 5,6 °C 5,0 °C 1,1 °C 94 % 1020,4 hPa 0,0 l/m² 0 min 0 W/m² 9,7 km/h (2 Bft) 97,83 %
12.03.2026 03:42 5,6 °C 4,4 °C 1,1 °C 94 % 1020,4 hPa 0,0 l/m² 0 min 0 W/m² 16,1 km/h (3 Bft) 97,87 %
12.03.2026 03:44 5,6 °C 4,4 °C 1,1 °C 95 % 1020,5 hPa 0,0 l/m² 0 min 0 W/m² 6,4 km/h (2 Bft) 97,87 %
12.03.2026 03:46 5,6 °C 4,4 °C 1,1 °C 95 % 1020,4 hPa 0,0 l/m² 0 min 0 W/m² 9,7 km/h (2 Bft) 97,87 %
12.03.2026 03:48 5,6 °C 4,4 °C 1,1 °C 95 % 1020,4 hPa 0,0 l/m² 0 min 0 W/m² 12,9 km/h (3 Bft) 97,87 %
12.03.2026 03:50 5,6 °C 4,4 °C 1,1 °C 95 % 1020,4 hPa 0,0 l/m² 0 min 0 W/m² 9,7 km/h (2 Bft) 97,87 %
12.03.2026 03:52 5,6 °C 5,0 °C 1,1 °C 95 % 1020,4 hPa 0,0 l/m² 0 min 0 W/m² 16,1 km/h (3 Bft) 100,00 %
12.03.2026 03:54 5,6 °C 5,0 °C 1,1 °C 95 % 1020,4 hPa 0,0 l/m² 0 min 0 W/m² 12,9 km/h (3 Bft) 100,00 %
12.03.2026 03:56 5,6 °C 5,0 °C 1,1 °C 95 % 1020,5 hPa 0,0 l/m² 0 min 0 W/m² 12,9 km/h (3 Bft) 97,87 %
12.03.2026 03:58 5,6 °C 5,0 °C 1,1 °C 95 % 1020,4 hPa 0,0 l/m² 0 min 0 W/m² 12,9 km/h (3 Bft) 97,87 %
12.03.2026 04:00 5,6 °C 4,4 °C 1,1 °C 95 % 1020,5 hPa 0,0 l/m² 0 min 0 W/m² 9,7 km/h (2 Bft) 95,74 %
12.03.2026 04:02 5,6 °C 4,4 °C 1,1 °C 95 % 1020,5 hPa 0,0 l/m² 0 min 0 W/m² 9,7 km/h (2 Bft) 97,83 %
12.03.2026 04:04 5,6 °C 4,4 °C 1,1 °C 95 % 1020,4 hPa 0,0 l/m² 0 min 0 W/m² 9,7 km/h (2 Bft) 100,00 %
12.03.2026 04:06 5,6 °C 4,4 °C 1,1 °C 95 % 1020,5 hPa 0,0 l/m² 0 min 0 W/m² 12,9 km/h (3 Bft) 97,87 %
12.03.2026 04:08 5,6 °C 5,0 °C 1,1 °C 95 % 1020,6 hPa 0,0 l/m² 0 min 0 W/m² 16,1 km/h (3 Bft) 97,14 %
12.03.2026 04:10 5,6 °C 5,0 °C 1,1 °C 95 % 1020,5 hPa 0,0 l/m² 0 min 0 W/m² 12,9 km/h (3 Bft) 97,87 %
12.03.2026 04:12 5,6 °C 5,0 °C 1,1 °C 95 % 1020,6 hPa 0,0 l/m² 0 min 0 W/m² 16,1 km/h (3 Bft) 95,74 %
12.03.2026 04:14 5,6 °C 5,0 °C 1,1 °C 95 % 1020,6 hPa 0,0 l/m² 0 min 0 W/m² 9,7 km/h (2 Bft) 97,87 %
12.03.2026 04:16 5,6 °C 5,0 °C 1,1 °C 95 % 1020,6 hPa 0,0 l/m² 0 min 0 W/m² 16,1 km/h (3 Bft) 98,08 %
12.03.2026 04:18 5,6 °C 5,0 °C 1,1 °C 95 % 1020,6 hPa 0,0 l/m² 0 min 0 W/m² 12,9 km/h (3 Bft) 97,73 %
12.03.2026 04:20 5,6 °C 5,0 °C 1,1 °C 95 % 1020,7 hPa 0,0 l/m² 0 min 0 W/m² 12,9 km/h (3 Bft) 95,74 %
12.03.2026 04:22 5,6 °C 5,0 °C 1,1 °C 95 % 1020,6 hPa 0,0 l/m² 0 min 0 W/m² 6,4 km/h (2 Bft) 95,74 %
12.03.2026 04:24 5,6 °C 5,0 °C 1,1 °C 95 % 1020,7 hPa 0,0 l/m² 0 min 0 W/m² 12,9 km/h (3 Bft) 97,87 %
12.03.2026 04:26 5,6 °C 5,0 °C 1,1 °C 95 % 1020,8 hPa 0,0 l/m² 0 min 0 W/m² 12,9 km/h (3 Bft) 97,87 %
12.03.2026 04:28 5,6 °C 5,0 °C 1,1 °C 95 % 1020,7 hPa 0,0 l/m² 0 min 0 W/m² 16,1 km/h (3 Bft) 97,83 %
12.03.2026 04:30 5,6 °C 5,0 °C 1,7 °C 95 % 1020,7 hPa 0,0 l/m² 0 min 0 W/m² 12,9 km/h (3 Bft) 97,87 %
12.03.2026 04:32 5,6 °C 5,0 °C 1,7 °C 95 % 1020,7 hPa 0,2 l/m² 0 min 0 W/m² 12,9 km/h (3 Bft) 95,74 %
12.03.2026 04:34 5,7 °C 5,0 °C 1,7 °C 95 % 1020,7 hPa 0,0 l/m² 0 min 0 W/m² 12,9 km/h (3 Bft) 97,87 %
12.03.2026 04:36 5,7 °C 5,0 °C 1,7 °C 95 % 1020,7 hPa 0,0 l/m² 0 min 0 W/m² 12,9 km/h (3 Bft) 97,87 %
12.03.2026 04:38 5,7 °C 5,0 °C 1,7 °C 95 % 1020,7 hPa 0,0 l/m² 0 min 0 W/m² 12,9 km/h (3 Bft) 100,00 %
12.03.2026 04:40 5,7 °C 5,0 °C 1,7 °C 95 % 1020,6 hPa 0,0 l/m² 0 min 0 W/m² 16,1 km/h (3 Bft) 100,00 %
12.03.2026 04:42 5,7 °C 5,0 °C 1,7 °C 95 % 1020,7 hPa 0,0 l/m² 0 min 0 W/m² 12,9 km/h (3 Bft) 100,00 %
12.03.2026 04:44 5,7 °C 5,0 °C 1,7 °C 95 % 1020,7 hPa 0,0 l/m² 0 min 0 W/m² 9,7 km/h (2 Bft) 97,87 %
12.03.2026 04:46 5,7 °C 5,0 °C 1,7 °C 95 % 1020,7 hPa 0,0 l/m² 0 min 0 W/m² 9,7 km/h (2 Bft) 97,87 %
12.03.2026 04:48 5,7 °C 5,0 °C 1,7 °C 95 % 1020,6 hPa 0,0 l/m² 0 min 0 W/m² 12,9 km/h (3 Bft) 97,87 %
12.03.2026 04:50 5,7 °C 5,0 °C 1,7 °C 95 % 1020,7 hPa 0,0 l/m² 0 min 0 W/m² 16,1 km/h (3 Bft) 95,74 %
12.03.2026 04:52 5,8 °C 5,0 °C 1,7 °C 95 % 1020,7 hPa 0,0 l/m² 0 min 0 W/m² 12,9 km/h (3 Bft) 97,83 %
12.03.2026 04:54 5,8 °C 5,0 °C 1,7 °C 95 % 1020,8 hPa 0,0 l/m² 0 min 0 W/m² 9,7 km/h (2 Bft) 96,00 %
12.03.2026 04:56 5,8 °C 5,0 °C 1,7 °C 95 % 1020,8 hPa 0,0 l/m² 0 min 0 W/m² 9,7 km/h (2 Bft) 97,83 %
12.03.2026 04:58 5,8 °C 5,0 °C 1,7 °C 95 % 1020,8 hPa 0,0 l/m² 0 min 0 W/m² 12,9 km/h (3 Bft) 97,87 %
12.03.2026 05:00 5,8 °C 5,0 °C 1,7 °C 95 % 1020,8 hPa 0,0 l/m² 0 min 0 W/m² 9,7 km/h (2 Bft) 97,87 %
12.03.2026 05:02 5,8 °C 5,0 °C 1,7 °C 95 % 1020,7 hPa 0,0 l/m² 0 min 0 W/m² 16,1 km/h (3 Bft) 95,74 %
12.03.2026 05:04 5,8 °C 5,0 °C 1,7 °C 95 % 1020,7 hPa 0,0 l/m² 0 min 0 W/m² 22,5 km/h (4 Bft) 97,87 %
12.03.2026 05:06 5,8 °C 5,0 °C 1,7 °C 95 % 1020,8 hPa 0,0 l/m² 0 min 0 W/m² 25,7 km/h (4 Bft) 96,55 %
12.03.2026 05:08 5,9 °C 5,0 °C 1,7 °C 95 % 1020,8 hPa 0,0 l/m² 0 min 0 W/m² 16,1 km/h (3 Bft) 97,22 %
12.03.2026 05:10 5,9 °C 5,0 °C 1,7 °C 95 % 1020,8 hPa 0,0 l/m² 0 min 0 W/m² 12,9 km/h (3 Bft) 97,87 %
12.03.2026 05:12 5,9 °C 5,0 °C 1,7 °C 95 % 1020,8 hPa 0,0 l/m² 0 min 0 W/m² 6,4 km/h (2 Bft) 95,74 %
12.03.2026 05:14 5,9 °C 5,0 °C 1,7 °C 95 % 1020,8 hPa 0,0 l/m² 0 min 0 W/m² 16,1 km/h (3 Bft) 97,87 %
12.03.2026 05:16 5,9 °C 5,0 °C 1,7 °C 95 % 1020,8 hPa 0,0 l/m² 0 min 0 W/m² 12,9 km/h (3 Bft) 97,87 %
12.03.2026 05:18 5,9 °C 5,0 °C 1,7 °C 95 % 1020,7 hPa 0,0 l/m² 0 min 0 W/m² 12,9 km/h (3 Bft) 97,83 %
12.03.2026 05:20 5,8 °C 5,0 °C 1,7 °C 95 % 1020,7 hPa 0,0 l/m² 0 min 0 W/m² 29,0 km/h (5 Bft) 97,87 %
12.03.2026 05:22 5,8 °C 5,0 °C 1,7 °C 95 % 1020,8 hPa 0,0 l/m² 0 min 0 W/m² 12,9 km/h (3 Bft) 95,74 %
12.03.2026 05:24 5,8 °C 5,0 °C 1,7 °C 95 % 1020,8 hPa 0,0 l/m² 0 min 0 W/m² 12,9 km/h (3 Bft) 95,74 %
12.03.2026 05:26 5,8 °C 5,0 °C 1,7 °C 95 % 1020,8 hPa 0,0 l/m² 0 min 0 W/m² 9,7 km/h (2 Bft) 95,74 %
12.03.2026 05:28 5,8 °C 5,0 °C 1,7 °C 95 % 1020,8 hPa 0,0 l/m² 0 min 0 W/m² 19,3 km/h (3 Bft) 95,74 %
12.03.2026 05:30 5,8 °C 5,0 °C 1,7 °C 95 % 1020,7 hPa 0,0 l/m² 0 min 0 W/m² 16,1 km/h (3 Bft) 95,65 %
12.03.2026 05:32 5,8 °C 5,0 °C 1,7 °C 95 % 1020,7 hPa 0,0 l/m² 0 min 0 W/m² 12,9 km/h (3 Bft) 95,74 %
12.03.2026 05:34 5,8 °C 5,0 °C 1,7 °C 95 % 1020,7 hPa 0,0 l/m² 0 min 0 W/m² 9,7 km/h (2 Bft) 95,74 %
12.03.2026 05:36 5,8 °C 5,0 °C 1,7 °C 95 % 1020,7 hPa 0,0 l/m² 0 min 0 W/m² 12,9 km/h (3 Bft) 95,74 %
12.03.2026 05:38 5,8 °C 5,0 °C 1,7 °C 95 % 1020,7 hPa 0,0 l/m² 0 min 0 W/m² 6,4 km/h (2 Bft) 95,74 %
12.03.2026 05:40 5,8 °C 5,0 °C 1,7 °C 95 % 1020,7 hPa 0,0 l/m² 0 min 0 W/m² 9,7 km/h (2 Bft) 97,87 %
12.03.2026 05:42 5,7 °C 4,4 °C 1,7 °C 95 % 1020,6 hPa 0,0 l/m² 0 min 0 W/m² 12,9 km/h (3 Bft) 95,65 %
12.03.2026 05:44 5,7 °C 4,4 °C 1,1 °C 95 % 1020,6 hPa 0,0 l/m² 0 min 0 W/m² 9,7 km/h (2 Bft) 97,87 %
12.03.2026 05:46 5,7 °C 4,4 °C 1,1 °C 95 % 1020,6 hPa 0,0 l/m² 0 min 0 W/m² 12,9 km/h (3 Bft) 97,87 %
12.03.2026 05:48 5,7 °C 4,4 °C 1,1 °C 95 % 1020,6 hPa 0,0 l/m² 0 min 0 W/m² 12,9 km/h (3 Bft) 97,87 %
12.03.2026 05:50 5,7 °C 4,4 °C 1,1 °C 95 % 1020,6 hPa 0,0 l/m² 0 min 0 W/m² 16,1 km/h (3 Bft) 97,87 %
12.03.2026 05:52 5,6 °C 4,4 °C 1,1 °C 95 % 1020,6 hPa 0,0 l/m² 0 min 0 W/m² 12,9 km/h (3 Bft) 95,74 %
12.03.2026 05:54 5,6 °C 4,4 °C 1,1 °C 95 % 1020,7 hPa 0,0 l/m² 0 min 0 W/m² 16,1 km/h (3 Bft) 95,65 %
12.03.2026 05:56 5,6 °C 4,4 °C 1,1 °C 95 % 1020,7 hPa 0,0 l/m² 0 min 0 W/m² 12,9 km/h (3 Bft) 93,62 %
12.03.2026 05:58 5,6 °C 4,4 °C 1,1 °C 95 % 1020,7 hPa 0,0 l/m² 0 min 0 W/m² 19,3 km/h (3 Bft) 95,74 %
12.03.2026 06:00 5,6 °C 4,4 °C 1,1 °C 95 % 1020,7 hPa 0,0 l/m² 0 min 0 W/m² 12,9 km/h (3 Bft) 95,74 %
12.03.2026 06:02 5,6 °C 4,4 °C 1,1 °C 95 % 1020,6 hPa 0,0 l/m² 0 min 0 W/m² 16,1 km/h (3 Bft) 93,62 %
12.03.2026 06:04 5,6 °C 4,4 °C 1,1 °C 95 % 1020,7 hPa 0,0 l/m² 0 min 0 W/m² 12,9 km/h (3 Bft) 95,74 %
12.03.2026 06:07 5,6 °C 4,4 °C 1,1 °C 95 % 1020,7 hPa 0,0 l/m² 0 min 0 W/m² 22,5 km/h (4 Bft) 94,52 %
12.03.2026 06:08 5,6 °C 5,0 °C 1,1 °C 95 % 1020,7 hPa 0,0 l/m² 0 min 0 W/m² 9,7 km/h (2 Bft) 95,83 %
12.03.2026 06:12 5,6 °C 5,0 °C 1,7 °C 95 % 1020,7 hPa 0,0 l/m² 0 min 0 W/m² 12,9 km/h (3 Bft) 96,30 %
12.03.2026 06:14 5,6 °C 4,4 °C 1,7 °C 95 % 1020,7 hPa 0,0 l/m² 0 min 0 W/m² 16,1 km/h (3 Bft) 97,87 %
12.03.2026 06:16 5,6 °C 5,0 °C 1,7 °C 95 % 1020,7 hPa 0,0 l/m² 0 min 0 W/m² 16,1 km/h (3 Bft) 98,00 %
12.03.2026 06:18 5,6 °C 5,0 °C 1,7 °C 95 % 1020,6 hPa 0,0 l/m² 0 min 0 W/m² 25,7 km/h (4 Bft) 97,87 %
12.03.2026 06:20 5,6 °C 5,0 °C 1,7 °C 95 % 1020,7 hPa 0,0 l/m² 0 min 0 W/m² 16,1 km/h (3 Bft) 97,87 %
12.03.2026 06:22 5,6 °C 5,0 °C 1,7 °C 95 % 1020,7 hPa 0,0 l/m² 0 min 0 W/m² 12,9 km/h (3 Bft) 95,83 %
12.03.2026 06:24 5,6 °C 5,0 °C 1,7 °C 95 % 1020,7 hPa 0,0 l/m² 0 min 0 W/m² 25,7 km/h (4 Bft) 100,00 %
12.03.2026 06:26 5,6 °C 5,0 °C 1,7 °C 95 % 1020,8 hPa 0,0 l/m² 0 min 0 W/m² 16,1 km/h (3 Bft) 100,00 %
12.03.2026 06:28 5,6 °C 5,0 °C 1,7 °C 95 % 1020,8 hPa 0,0 l/m² 0 min 0 W/m² 25,7 km/h (4 Bft) 100,00 %
12.03.2026 06:30 5,6 °C 5,0 °C 1,7 °C 95 % 1020,8 hPa 0,0 l/m² 0 min 0 W/m² 16,1 km/h (3 Bft) 98,18 %
12.03.2026 06:32 5,6 °C 5,0 °C 1,7 °C 95 % 1020,9 hPa 0,0 l/m² 0 min 0 W/m² 12,9 km/h (3 Bft) 100,00 %
12.03.2026 06:34 5,6 °C 5,0 °C 1,7 °C 95 % 1020,8 hPa 0,0 l/m² 0 min 0 W/m² 16,1 km/h (3 Bft) 100,00 %
12.03.2026 06:36 5,6 °C 5,0 °C 1,7 °C 95 % 1020,8 hPa 0,0 l/m² 0 min 0 W/m² 16,1 km/h (3 Bft) 100,00 %
12.03.2026 06:38 5,6 °C 5,0 °C 1,7 °C 95 % 1020,9 hPa 0,0 l/m² 0 min 0 W/m² 19,3 km/h (3 Bft) 97,92 %
12.03.2026 06:40 5,6 °C 5,0 °C 1,7 °C 95 % 1020,9 hPa 0,0 l/m² 0 min 0 W/m² 25,7 km/h (4 Bft) 97,14 %
12.03.2026 06:42 5,6 °C 5,0 °C 1,7 °C 95 % 1020,9 hPa 0,0 l/m² 0 min 0 W/m² 12,9 km/h (3 Bft) 97,87 %
12.03.2026 06:44 5,6 °C 5,0 °C 1,7 °C 95 % 1020,9 hPa 0,0 l/m² 0 min 0 W/m² 9,7 km/h (2 Bft) 100,00 %
12.03.2026 06:49 5,6 °C 5,0 °C 1,7 °C 95 % 1020,9 hPa 0,0 l/m² 0 min 0 W/m² 19,3 km/h (3 Bft) 98,31 %
12.03.2026 06:50 5,6 °C 5,0 °C 1,7 °C 95 % 1020,9 hPa 0,0 l/m² 0 min 0 W/m² 6,4 km/h (2 Bft) 100,00 %
12.03.2026 06:52 5,6 °C 5,0 °C 1,7 °C 95 % 1021,0 hPa 0,0 l/m² 0 min 0 W/m² 12,9 km/h (3 Bft) 100,00 %
12.03.2026 06:54 5,5 °C 4,4 °C 1,1 °C 95 % 1020,9 hPa 0,0 l/m² 0 min 0 W/m² 12,9 km/h (3 Bft) 100,00 %
12.03.2026 06:56 5,5 °C 4,4 °C 1,1 °C 95 % 1021,0 hPa 0,0 l/m² 0 min 0 W/m² 12,9 km/h (3 Bft) 100,00 %
12.03.2026 06:58 5,5 °C 4,4 °C 1,1 °C 95 % 1021,0 hPa 0,0 l/m² 0 min 3 W/m² 16,1 km/h (3 Bft) 97,87 %
12.03.2026 07:00 5,5 °C 4,4 °C 1,1 °C 95 % 1021,1 hPa 0,0 l/m² 0 min 5 W/m² 12,9 km/h (3 Bft) 97,83 %
12.03.2026 07:02 5,5 °C 4,4 °C 1,1 °C 95 % 1021,0 hPa 0,0 l/m² 0 min 5 W/m² 12,9 km/h (3 Bft) 100,00 %
12.03.2026 07:04 5,4 °C 4,4 °C 1,1 °C 95 % 1021,1 hPa 0,0 l/m² 0 min 7 W/m² 9,7 km/h (2 Bft) 97,87 %
12.03.2026 07:06 5,4 °C 4,4 °C 1,1 °C 95 % 1021,1 hPa 0,0 l/m² 0 min 7 W/m² 12,9 km/h (3 Bft) 100,00 %
12.03.2026 07:08 5,4 °C 4,4 °C 1,1 °C 95 % 1021,1 hPa 0,0 l/m² 0 min 9 W/m² 12,9 km/h (3 Bft) 100,00 %
12.03.2026 07:10 5,4 °C 4,4 °C 1,1 °C 95 % 1021,2 hPa 0,0 l/m² 0 min 9 W/m² 16,1 km/h (3 Bft) 100,00 %
12.03.2026 07:12 5,4 °C 4,4 °C 1,1 °C 95 % 1021,2 hPa 0,0 l/m² 0 min 11 W/m² 16,1 km/h (3 Bft) 100,00 %
12.03.2026 07:14 5,4 °C 4,4 °C 1,1 °C 95 % 1021,2 hPa 0,0 l/m² 0 min 11 W/m² 12,9 km/h (3 Bft) 97,87 %
12.03.2026 07:16 5,4 °C 5,0 °C 1,1 °C 95 % 1021,2 hPa 0,0 l/m² 0 min 12 W/m² 16,1 km/h (3 Bft) 100,00 %
12.03.2026 07:18 5,4 °C 5,0 °C 1,1 °C 95 % 1021,2 hPa 0,0 l/m² 0 min 13 W/m² 19,3 km/h (3 Bft) 100,00 %
12.03.2026 07:20 5,4 °C 5,0 °C 1,1 °C 95 % 1021,3 hPa 0,0 l/m² 0 min 14 W/m² 19,3 km/h (3 Bft) 97,87 %
12.03.2026 07:22 5,4 °C 5,0 °C 1,1 °C 95 % 1021,3 hPa 0,0 l/m² 0 min 15 W/m² 16,1 km/h (3 Bft) 100,00 %
12.03.2026 07:24 5,4 °C 5,0 °C 1,7 °C 95 % 1021,3 hPa 0,0 l/m² 0 min 16 W/m² 16,1 km/h (3 Bft) 97,87 %
12.03.2026 07:26 5,4 °C 5,0 °C 1,7 °C 95 % 1021,3 hPa 0,0 l/m² 0 min 18 W/m² 12,9 km/h (3 Bft) 100,00 %
12.03.2026 07:28 5,4 °C 5,0 °C 1,7 °C 95 % 1021,3 hPa 0,0 l/m² 0 min 18 W/m² 12,9 km/h (3 Bft) 100,00 %
12.03.2026 07:30 5,4 °C 5,0 °C 1,7 °C 95 % 1021,3 hPa 0,0 l/m² 0 min 19 W/m² 19,3 km/h (3 Bft) 100,00 %
12.03.2026 07:32 5,4 °C 5,0 °C 1,7 °C 95 % 1021,3 hPa 0,0 l/m² 0 min 19 W/m² 9,7 km/h (2 Bft) 100,00 %
12.03.2026 07:34 5,4 °C 5,0 °C 1,7 °C 95 % 1021,4 hPa 0,0 l/m² 0 min 20 W/m² 22,5 km/h (4 Bft) 97,83 %
12.03.2026 07:36 5,4 °C 5,0 °C 1,7 °C 95 % 1021,4 hPa 0,0 l/m² 0 min 21 W/m² 12,9 km/h (3 Bft) 100,00 %
12.03.2026 07:38 5,4 °C 5,0 °C 1,7 °C 95 % 1021,4 hPa 0,0 l/m² 0 min 21 W/m² 19,3 km/h (3 Bft) 100,00 %
12.03.2026 07:40 5,4 °C 5,0 °C 1,7 °C 95 % 1021,5 hPa 0,0 l/m² 0 min 23 W/m² 12,9 km/h (3 Bft) 95,74 %
12.03.2026 07:42 5,4 °C 5,0 °C 1,7 °C 95 % 1021,5 hPa 0,0 l/m² 0 min 23 W/m² 19,3 km/h (3 Bft) 97,87 %
12.03.2026 07:44 5,4 °C 5,0 °C 1,7 °C 95 % 1021,6 hPa 0,0 l/m² 0 min 25 W/m² 22,5 km/h (4 Bft) 97,87 %
12.03.2026 07:46 5,4 °C 5,0 °C 1,7 °C 95 % 1021,6 hPa 0,0 l/m² 0 min 25 W/m² 19,3 km/h (3 Bft) 97,83 %
12.03.2026 07:48 5,4 °C 5,0 °C 1,7 °C 95 % 1021,6 hPa 0,0 l/m² 0 min 25 W/m² 12,9 km/h (3 Bft) 95,74 %
12.03.2026 07:50 5,5 °C 5,0 °C 1,7 °C 95 % 1021,6 hPa 0,0 l/m² 0 min 26 W/m² 16,1 km/h (3 Bft) 95,74 %
12.03.2026 07:52 5,5 °C 5,0 °C 1,7 °C 95 % 1021,6 hPa 0,0 l/m² 0 min 26 W/m² 12,9 km/h (3 Bft) 95,74 %
12.03.2026 07:54 5,5 °C 5,0 °C 1,7 °C 95 % 1021,7 hPa 0,0 l/m² 0 min 28 W/m² 16,1 km/h (3 Bft) 95,74 %
12.03.2026 07:56 5,5 °C 5,0 °C 1,7 °C 95 % 1021,7 hPa 0,0 l/m² 0 min 28 W/m² 12,9 km/h (3 Bft) 93,62 %
12.03.2026 07:58 5,6 °C 5,0 °C 1,7 °C 95 % 1021,7 hPa 0,0 l/m² 0 min 28 W/m² 16,1 km/h (3 Bft) 93,48 %
12.03.2026 08:00 5,6 °C 5,0 °C 1,7 °C 95 % 1021,7 hPa 0,0 l/m² 0 min 30 W/m² 16,1 km/h (3 Bft) 91,49 %
12.03.2026 08:02 5,6 °C 5,0 °C 1,7 °C 95 % 1021,7 hPa 0,0 l/m² 0 min 30 W/m² 12,9 km/h (3 Bft) 93,62 %
12.03.2026 08:04 5,6 °C 5,6 °C 1,7 °C 95 % 1021,8 hPa 0,0 l/m² 0 min 31 W/m² 19,3 km/h (3 Bft) 93,62 %
12.03.2026 08:06 5,6 °C 5,6 °C 1,7 °C 96 % 1021,8 hPa 0,0 l/m² 0 min 32 W/m² 6,4 km/h (2 Bft) 93,62 %
12.03.2026 08:08 5,6 °C 5,6 °C 1,7 °C 96 % 1021,9 hPa 0,0 l/m² 0 min 32 W/m² 12,9 km/h (3 Bft) 93,75 %
12.03.2026 08:10 5,7 °C 5,6 °C 1,7 °C 96 % 1021,9 hPa 0,0 l/m² 0 min 33 W/m² 9,7 km/h (2 Bft) 93,48 %
12.03.2026 08:12 5,7 °C 5,6 °C 1,7 °C 96 % 1021,9 hPa 0,0 l/m² 0 min 33 W/m² 12,9 km/h (3 Bft) 95,74 %
12.03.2026 08:14 5,7 °C 5,6 °C 1,7 °C 96 % 1022,0 hPa 0,0 l/m² 0 min 33 W/m² 16,1 km/h (3 Bft) 95,74 %
12.03.2026 08:16 5,7 °C 5,6 °C 1,7 °C 95 % 1022,0 hPa 0,0 l/m² 0 min 35 W/m² 12,9 km/h (3 Bft) 91,49 %
12.03.2026 08:18 5,8 °C 5,6 °C 1,7 °C 95 % 1022,1 hPa 0,0 l/m² 0 min 35 W/m² 22,5 km/h (4 Bft) 51,11 %
12.03.2026 08:20 5,8 °C 5,6 °C 2,2 °C 95 % 1022,1 hPa 0,0 l/m² 0 min 37 W/m² 12,9 km/h (3 Bft) 93,48 %
12.03.2026 08:22 5,8 °C 5,6 °C 2,2 °C 95 % 1022,1 hPa 0,0 l/m² 0 min 37 W/m² 9,7 km/h (2 Bft) 93,62 %
12.03.2026 08:24 5,8 °C 5,6 °C 2,2 °C 95 % 1022,2 hPa 0,0 l/m² 0 min 39 W/m² 12,9 km/h (3 Bft) 95,74 %
12.03.2026 08:26 5,9 °C 5,6 °C 2,2 °C 95 % 1022,2 hPa 0,0 l/m² 0 min 39 W/m² 16,1 km/h (3 Bft) 93,62 %
12.03.2026 08:28 5,9 °C 6,1 °C 2,2 °C 95 % 1022,2 hPa 0,0 l/m² 0 min 39 W/m² 16,1 km/h (3 Bft) 95,74 %
12.03.2026 08:30 5,9 °C 6,1 °C 2,2 °C 95 % 1022,2 hPa 0,0 l/m² 0 min 40 W/m² 16,1 km/h (3 Bft) 91,49 %
12.03.2026 08:32 6,0 °C 6,1 °C 2,2 °C 95 % 1022,3 hPa 0,0 l/m² 0 min 41 W/m² 12,9 km/h (3 Bft) 95,65 %
12.03.2026 08:34 6,1 °C 6,1 °C 2,2 °C 95 % 1022,3 hPa 0,0 l/m² 0 min 42 W/m² 12,9 km/h (3 Bft) 95,74 %
12.03.2026 08:36 6,1 °C 6,1 °C 2,2 °C 95 % 1022,3 hPa 0,0 l/m² 0 min 43 W/m² 22,5 km/h (4 Bft) 97,87 %
12.03.2026 08:38 6,1 °C 6,1 °C 2,2 °C 95 % 1022,4 hPa 0,0 l/m² 0 min 44 W/m² 16,1 km/h (3 Bft) 97,87 %
12.03.2026 08:40 6,2 °C 6,1 °C 2,2 °C 95 % 1022,3 hPa 0,0 l/m² 0 min 46 W/m² 16,1 km/h (3 Bft) 97,87 %
12.03.2026 08:42 6,2 °C 6,1 °C 2,2 °C 95 % 1022,3 hPa 0,0 l/m² 0 min 46 W/m² 19,3 km/h (3 Bft) 97,87 %
12.03.2026 08:44 6,3 °C 6,1 °C 2,2 °C 95 % 1022,3 hPa 0,0 l/m² 0 min 86 W/m² 19,3 km/h (3 Bft) 97,83 %
12.03.2026 08:46 6,3 °C 6,7 °C 2,8 °C 95 % 1022,4 hPa 0,0 l/m² 2 min 208 W/m² 19,3 km/h (3 Bft) 97,87 %
12.03.2026 08:48 6,3 °C 6,7 °C 2,8 °C 95 % 1022,4 hPa 0,0 l/m² 2 min 222 W/m² 19,3 km/h (3 Bft) 95,74 %
12.03.2026 08:50 6,4 °C 6,7 °C 2,8 °C 95 % 1022,4 hPa 0,0 l/m² 2 min 228 W/m² 16,1 km/h (3 Bft) 100,00 %
12.03.2026 08:52 6,5 °C 7,8 °C 2,8 °C 95 % 1022,4 hPa 0,0 l/m² 2 min 220 W/m² 29,0 km/h (5 Bft) 97,87 %
12.03.2026 08:54 6,6 °C 9,4 °C 2,8 °C 95 % 1022,4 hPa 0,0 l/m² 2 min 186 W/m² 19,3 km/h (3 Bft) 97,87 %
12.03.2026 08:56 6,6 °C 10,0 °C 2,8 °C 94 % 1022,4 hPa 0,0 l/m² 2 min 207 W/m² 19,3 km/h (3 Bft) 100,00 %
12.03.2026 08:58 6,7 °C 11,1 °C 2,8 °C 94 % 1022,5 hPa 0,0 l/m² 2 min 162 W/m² 19,3 km/h (3 Bft) 100,00 %
12.03.2026 09:00 6,8 °C 11,7 °C 3,3 °C 94 % 1022,5 hPa 0,0 l/m² 2 min 178 W/m² 19,3 km/h (3 Bft) 100,00 %
12.03.2026 09:02 6,9 °C 12,2 °C 3,3 °C 94 % 1022,5 hPa 0,0 l/m² 2 min 257 W/m² 16,1 km/h (3 Bft) 97,87 %
12.03.2026 09:04 7,1 °C 12,2 °C 3,3 °C 94 % 1022,6 hPa 0,0 l/m² 2 min 262 W/m² 22,5 km/h (4 Bft) 100,00 %
12.03.2026 09:06 7,2 °C 11,7 °C 3,3 °C 94 % 1022,6 hPa 0,0 l/m² 2 min 266 W/m² 16,1 km/h (3 Bft) 100,00 %
12.03.2026 09:08 7,2 °C 11,7 °C 3,3 °C 93 % 1022,6 hPa 0,0 l/m² 2 min 272 W/m² 16,1 km/h (3 Bft) 100,00 %
12.03.2026 09:10 7,3 °C 11,1 °C 3,9 °C 93 % 1022,7 hPa 0,0 l/m² 2 min 275 W/m² 19,3 km/h (3 Bft) 100,00 %
12.03.2026 09:12 7,4 °C 11,7 °C 3,9 °C 92 % 1022,7 hPa 0,0 l/m² 2 min 279 W/m² 16,1 km/h (3 Bft) 97,87 %
12.03.2026 09:14 7,5 °C 10,6 °C 3,9 °C 92 % 1022,6 hPa 0,0 l/m² 2 min 273 W/m² 22,5 km/h (4 Bft) 100,00 %
12.03.2026 09:16 7,6 °C 10,6 °C 3,9 °C 91 % 1022,6 hPa 0,0 l/m² 2 min 286 W/m² 19,3 km/h (3 Bft) 100,00 %
12.03.2026 09:18 7,6 °C 10,6 °C 3,9 °C 91 % 1022,6 hPa 0,0 l/m² 2 min 292 W/m² 32,2 km/h (5 Bft) 97,83 %
12.03.2026 09:20 7,7 °C 10,6 °C 3,9 °C 90 % 1022,7 hPa 0,0 l/m² 2 min 235 W/m² 29,0 km/h (5 Bft) 100,00 %
12.03.2026 09:22 7,7 °C 11,1 °C 3,9 °C 90 % 1022,7 hPa 0,0 l/m² 2 min 190 W/m² 32,2 km/h (5 Bft) 100,00 %
12.03.2026 09:24 7,8 °C 11,1 °C 4,4 °C 90 % 1022,6 hPa 0,0 l/m² 2 min 179 W/m² 29,0 km/h (5 Bft) 100,00 %
12.03.2026 09:26 7,8 °C 11,1 °C 4,4 °C 89 % 1022,6 hPa 0,0 l/m² 2 min 315 W/m² 22,5 km/h (4 Bft) 100,00 %
12.03.2026 09:28 7,8 °C 11,7 °C 4,4 °C 89 % 1022,7 hPa 0,0 l/m² 2 min 262 W/m² 19,3 km/h (3 Bft) 97,87 %
12.03.2026 09:30 7,9 °C 11,7 °C 4,4 °C 88 % 1022,7 hPa 0,0 l/m² 2 min 297 W/m² 25,7 km/h (4 Bft) 100,00 %
12.03.2026 09:32 7,9 °C 12,2 °C 4,4 °C 88 % 1022,7 hPa 0,0 l/m² 2 min 329 W/m² 29,0 km/h (5 Bft) 100,00 %
12.03.2026 09:34 8,0 °C 12,2 °C 5,0 °C 88 % 1022,7 hPa 0,0 l/m² 2 min 301 W/m² 29,0 km/h (5 Bft) 100,00 %
12.03.2026 09:36 8,1 °C 11,7 °C 5,0 °C 88 % 1022,7 hPa 0,0 l/m² 2 min 193 W/m² 25,7 km/h (4 Bft) 100,00 %
12.03.2026 09:38 8,1 °C 12,2 °C 5,0 °C 88 % 1022,7 hPa 0,0 l/m² 2 min 202 W/m² 29,0 km/h (5 Bft) 100,00 %
12.03.2026 09:40 8,2 °C 12,8 °C 5,0 °C 88 % 1022,8 hPa 0,0 l/m² 0 min 149 W/m² 12,9 km/h (3 Bft) 97,87 %
12.03.2026 09:42 8,2 °C 12,2 °C 5,0 °C 88 % 1022,7 hPa 0,0 l/m² 0 min 182 W/m² 19,3 km/h (3 Bft) 95,65 %
12.03.2026 09:44 8,3 °C 12,2 °C 5,0 °C 87 % 1022,8 hPa 0,0 l/m² 2 min 251 W/m² 32,2 km/h (5 Bft) 93,62 %
12.03.2026 09:46 8,3 °C 12,2 °C 5,0 °C 87 % 1022,8 hPa 0,0 l/m² 2 min 258 W/m² 29,0 km/h (5 Bft) 93,62 %
12.03.2026 09:48 8,3 °C 12,2 °C 5,0 °C 87 % 1022,8 hPa 0,0 l/m² 2 min 289 W/m² 25,7 km/h (4 Bft) 95,74 %
12.03.2026 09:50 8,3 °C 11,7 °C 5,0 °C 87 % 1022,8 hPa 0,0 l/m² 2 min 267 W/m² 19,3 km/h (3 Bft) 97,87 %
12.03.2026 09:52 8,4 °C 11,1 °C 5,0 °C 86 % 1022,7 hPa 0,0 l/m² 0 min 197 W/m² 35,4 km/h (5 Bft) 97,87 %
12.03.2026 09:54 8,4 °C 11,1 °C 5,0 °C 87 % 1022,8 hPa 0,0 l/m² 2 min 216 W/m² 25,7 km/h (4 Bft) 95,65 %
12.03.2026 09:56 8,5 °C 10,6 °C 5,0 °C 86 % 1022,8 hPa 0,0 l/m² 2 min 271 W/m² 32,2 km/h (5 Bft) 97,87 %
12.03.2026 09:58 8,5 °C 11,1 °C 5,0 °C 86 % 1022,8 hPa 0,0 l/m² 2 min 308 W/m² 22,5 km/h (4 Bft) 95,74 %
12.03.2026 10:00 8,5 °C 10,6 °C 5,0 °C 86 % 1022,7 hPa 0,0 l/m² 2 min 315 W/m² 25,7 km/h (4 Bft) 95,74 %
12.03.2026 10:02 8,6 °C 10,6 °C 5,6 °C 86 % 1022,7 hPa 0,0 l/m² 2 min 350 W/m² 16,1 km/h (3 Bft) 95,74 %
12.03.2026 10:04 8,6 °C 10,6 °C 5,6 °C 85 % 1022,7 hPa 0,0 l/m² 2 min 362 W/m² 22,5 km/h (4 Bft) 97,87 %
12.03.2026 10:06 8,6 °C 10,6 °C 6,1 °C 85 % 1022,7 hPa 0,0 l/m² 2 min 379 W/m² 25,7 km/h (4 Bft) 95,65 %
12.03.2026 10:08 8,7 °C 11,1 °C 6,7 °C 85 % 1022,7 hPa 0,0 l/m² 2 min 377 W/m² 19,3 km/h (3 Bft) 100,00 %
12.03.2026 10:10 8,8 °C 11,1 °C 6,7 °C 85 % 1022,7 hPa 0,0 l/m² 2 min 328 W/m² 25,7 km/h (4 Bft) 97,87 %
12.03.2026 10:12 8,8 °C 11,7 °C 7,2 °C 85 % 1022,7 hPa 0,0 l/m² 2 min 248 W/m² 19,3 km/h (3 Bft) 95,74 %
12.03.2026 10:14 8,9 °C 12,2 °C 7,2 °C 85 % 1022,6 hPa 0,0 l/m² 2 min 352 W/m² 19,3 km/h (3 Bft) 100,00 %
12.03.2026 10:16 8,9 °C 11,7 °C 7,2 °C 84 % 1022,6 hPa 0,0 l/m² 2 min 376 W/m² 32,2 km/h (5 Bft) 100,00 %
12.03.2026 10:18 8,9 °C 10,6 °C 7,2 °C 84 % 1022,6 hPa 0,0 l/m² 2 min 327 W/m² 22,5 km/h (4 Bft) 97,83 %
12.03.2026 10:20 8,9 °C 10,0 °C 6,7 °C 84 % 1022,6 hPa 0,0 l/m² 0 min 179 W/m² 29,0 km/h (5 Bft) 100,00 %
12.03.2026 10:22 9,0 °C 11,1 °C 6,7 °C 83 % 1022,6 hPa 0,0 l/m² 2 min 247 W/m² 25,7 km/h (4 Bft) 97,87 %
12.03.2026 10:24 9,1 °C 12,2 °C 6,7 °C 84 % 1022,6 hPa 0,0 l/m² 2 min 379 W/m² 25,7 km/h (4 Bft) 97,87 %
12.03.2026 10:26 9,2 °C 12,8 °C 6,7 °C 84 % 1022,5 hPa 0,0 l/m² 2 min 446 W/m² 29,0 km/h (5 Bft) 100,00 %
12.03.2026 10:28 9,3 °C 13,3 °C 8,3 °C 83 % 1022,6 hPa 0,0 l/m² 2 min 515 W/m² 32,2 km/h (5 Bft) 100,00 %
12.03.2026 10:30 9,3 °C 12,2 °C 7,8 °C 83 % 1022,6 hPa 0,0 l/m² 2 min 341 W/m² 25,7 km/h (4 Bft) 100,00 %
12.03.2026 10:32 9,3 °C 10,6 °C 6,7 °C 82 % 1022,6 hPa 0,0 l/m² 0 min 212 W/m² 32,2 km/h (5 Bft) 100,00 %
12.03.2026 10:34 9,3 °C 10,0 °C 6,1 °C 82 % 1022,5 hPa 0,0 l/m² 0 min 185 W/m² 29,0 km/h (5 Bft) 100,00 %
12.03.2026 10:36 9,2 °C 10,0 °C 6,1 °C 82 % 1022,5 hPa 0,0 l/m² 0 min 206 W/m² 22,5 km/h (4 Bft) 100,00 %
12.03.2026 10:38 9,2 °C 12,2 °C 7,2 °C 82 % 1022,4 hPa 0,0 l/m² 2 min 269 W/m² 25,7 km/h (4 Bft) 100,00 %
12.03.2026 10:40 9,2 °C 10,6 °C 6,7 °C 82 % 1022,4 hPa 0,0 l/m² 2 min 269 W/m² 29,0 km/h (5 Bft) 100,00 %
12.03.2026 10:42 9,1 °C 10,0 °C 6,7 °C 82 % 1022,4 hPa 0,0 l/m² 0 min 208 W/m² 29,0 km/h (5 Bft) 100,00 %
12.03.2026 10:44 9,1 °C 9,4 °C 6,1 °C 82 % 1022,4 hPa 0,0 l/m² 0 min 178 W/m² 25,7 km/h (4 Bft) 97,87 %
12.03.2026 10:46 9,1 °C 9,4 °C 6,1 °C 82 % 1022,4 hPa 0,0 l/m² 0 min 168 W/m² 29,0 km/h (5 Bft) 97,87 %
12.03.2026 10:48 9,1 °C 9,4 °C 5,6 °C 82 % 1022,5 hPa 0,0 l/m² 0 min 125 W/m² 25,7 km/h (4 Bft) 97,87 %
12.03.2026 10:50 9,1 °C 9,4 °C 5,6 °C 82 % 1022,5 hPa 0,0 l/m² 0 min 163 W/m² 25,7 km/h (4 Bft) 97,87 %
12.03.2026 10:52 8,9 °C 11,1 °C 6,1 °C 81 % 1022,3 hPa 0,0 l/m² 0 min 224 W/m² 25,7 km/h (4 Bft) 95,65 %
12.03.2026 10:54 8,9 °C 10,6 °C 6,7 °C 81 % 1022,4 hPa 0,0 l/m² 2 min 432 W/m² 38,6 km/h (5 Bft) 97,87 %
12.03.2026 10:56 9,0 °C 12,2 °C 7,2 °C 81 % 1022,4 hPa 0,0 l/m² 2 min 294 W/m² 29,0 km/h (5 Bft) 97,87 %
12.03.2026 10:58 9,1 °C 13,3 °C 8,3 °C 81 % 1022,3 hPa 0,0 l/m² 2 min 392 W/m² 19,3 km/h (3 Bft) 97,87 %
12.03.2026 11:00 9,2 °C 15,0 °C 9,4 °C 81 % 1022,2 hPa 0,0 l/m² 2 min 463 W/m² 19,3 km/h (3 Bft) 97,87 %
12.03.2026 11:02 9,3 °C 15,0 °C 10,0 °C 81 % 1022,3 hPa 0,0 l/m² 2 min 486 W/m² 38,6 km/h (5 Bft) 97,87 %
12.03.2026 11:04 9,4 °C 15,6 °C 10,0 °C 81 % 1022,2 hPa 0,0 l/m² 2 min 487 W/m² 29,0 km/h (5 Bft) 97,83 %
12.03.2026 11:06 9,6 °C 15,6 °C 10,6 °C 80 % 1022,2 hPa 0,0 l/m² 2 min 469 W/m² 22,5 km/h (4 Bft) 95,74 %
12.03.2026 11:08 9,7 °C 15,0 °C 10,6 °C 80 % 1022,2 hPa 0,0 l/m² 2 min 443 W/m² 38,6 km/h (5 Bft) 95,83 %
12.03.2026 11:10 9,8 °C 15,6 °C 10,6 °C 79 % 1022,2 hPa 0,0 l/m² 2 min 457 W/m² 19,3 km/h (3 Bft) 97,87 %
12.03.2026 11:12 9,9 °C 15,6 °C 11,1 °C 79 % 1022,2 hPa 0,0 l/m² 2 min 468 W/m² 29,0 km/h (5 Bft) 95,74 %
12.03.2026 11:14 10,0 °C 15,6 °C 11,1 °C 78 % 1022,1 hPa 0,0 l/m² 2 min 557 W/m² 41,8 km/h (6 Bft) 97,87 %
12.03.2026 11:16 10,1 °C 16,7 °C 11,7 °C 78 % 1022,1 hPa 0,0 l/m² 2 min 565 W/m² 29,0 km/h (5 Bft) 95,65 %
12.03.2026 11:18 10,1 °C 15,6 °C 11,1 °C 77 % 1022,1 hPa 0,0 l/m² 2 min 575 W/m² 32,2 km/h (5 Bft) 97,87 %
12.03.2026 11:20 10,2 °C 16,1 °C 11,7 °C 77 % 1022,0 hPa 0,0 l/m² 2 min 614 W/m² 22,5 km/h (4 Bft) 97,87 %
12.03.2026 11:22 10,4 °C 17,2 °C 12,2 °C 77 % 1022,0 hPa 0,0 l/m² 2 min 662 W/m² 22,5 km/h (4 Bft) 95,74 %
12.03.2026 11:24 10,5 °C 16,7 °C 12,2 °C 76 % 1021,9 hPa 0,0 l/m² 2 min 626 W/m² 25,7 km/h (4 Bft) 97,87 %
12.03.2026 11:26 10,7 °C 17,8 °C 12,8 °C 76 % 1021,9 hPa 0,0 l/m² 2 min 616 W/m² 22,5 km/h (4 Bft) 95,74 %
12.03.2026 11:28 10,8 °C 16,1 °C 11,7 °C 76 % 1021,9 hPa 0,0 l/m² 2 min 610 W/m² 41,8 km/h (6 Bft) 100,00 %
12.03.2026 11:30 10,8 °C 16,1 °C 11,7 °C 75 % 1021,9 hPa 0,0 l/m² 2 min 610 W/m² 29,0 km/h (5 Bft) 100,00 %
12.03.2026 11:32 10,8 °C 13,9 °C 10,6 °C 74 % 1021,9 hPa 0,0 l/m² 2 min 444 W/m² 35,4 km/h (5 Bft) 95,74 %
12.03.2026 11:34 10,8 °C 13,3 °C 10,0 °C 74 % 1021,8 hPa 0,0 l/m² 2 min 276 W/m² 35,4 km/h (5 Bft) 97,87 %
12.03.2026 11:36 10,7 °C 12,2 °C 9,4 °C 73 % 1021,9 hPa 0,0 l/m² 0 min 232 W/m² 25,7 km/h (4 Bft) 97,87 %
12.03.2026 11:38 10,6 °C 11,7 °C 8,3 °C 73 % 1021,9 hPa 0,0 l/m² 0 min 153 W/m² 29,0 km/h (5 Bft) 97,87 %
12.03.2026 11:40 10,4 °C 12,2 °C 8,3 °C 73 % 1021,9 hPa 0,0 l/m² 0 min 121 W/m² 19,3 km/h (3 Bft) 97,83 %
12.03.2026 11:42 10,4 °C 13,9 °C 10,6 °C 73 % 1021,8 hPa 0,0 l/m² 2 min 323 W/m² 22,5 km/h (4 Bft) 95,74 %
12.03.2026 11:44 10,4 °C 15,6 °C 11,1 °C 74 % 1021,8 hPa 0,0 l/m² 2 min 728 W/m² 38,6 km/h (5 Bft) 93,62 %
12.03.2026 11:46 10,5 °C 13,9 °C 10,6 °C 74 % 1021,8 hPa 0,0 l/m² 2 min 728 W/m² 25,7 km/h (4 Bft) 97,87 %
12.03.2026 11:48 10,5 °C 13,9 °C 10,6 °C 74 % 1021,8 hPa 0,0 l/m² 2 min 728 W/m² 35,4 km/h (5 Bft) 97,87 %
12.03.2026 11:50 10,6 °C 13,3 °C 10,0 °C 74 % 1021,7 hPa 0,0 l/m² 2 min 728 W/m² 22,5 km/h (4 Bft) 95,74 %
12.03.2026 11:52 10,6 °C 12,2 °C 8,9 °C 73 % 1021,6 hPa 0,0 l/m² 2 min 394 W/m² 35,4 km/h (5 Bft) 97,83 %
12.03.2026 11:54 10,6 °C 15,0 °C 10,0 °C 73 % 1021,6 hPa 0,0 l/m² 0 min 204 W/m² 29,0 km/h (5 Bft) 97,87 %
12.03.2026 11:56 10,7 °C 16,1 °C 10,6 °C 74 % 1021,6 hPa 0,0 l/m² 0 min 272 W/m² 9,7 km/h (2 Bft) 97,87 %
12.03.2026 11:58 10,7 °C 13,9 °C 10,0 °C 74 % 1021,5 hPa 0,0 l/m² 0 min 232 W/m² 19,3 km/h (3 Bft) 95,74 %
12.03.2026 12:00 10,7 °C 15,6 °C 10,6 °C 73 % 1021,5 hPa 0,0 l/m² 0 min 195 W/m² 51,5 km/h (7 Bft) 95,74 %
12.03.2026 12:02 10,8 °C 13,9 °C 10,0 °C 73 % 1021,4 hPa 0,0 l/m² 0 min 201 W/m² 22,5 km/h (4 Bft) 97,87 %
12.03.2026 12:04 10,8 °C 15,0 °C 10,0 °C 73 % 1021,4 hPa 0,0 l/m² 2 min 385 W/m² 32,2 km/h (5 Bft) 95,12 %
12.03.2026 12:07 10,9 °C 14,4 °C 10,0 °C 72 % 1021,4 hPa 0,0 l/m² 3 min 746 W/m² 45,1 km/h (6 Bft) 100,00 %
12.03.2026 12:08 10,9 °C 13,9 °C 9,4 °C 72 % 1021,4 hPa 0,0 l/m² 1 min 650 W/m² 29,0 km/h (5 Bft) 100,00 %
12.03.2026 12:12 10,9 °C 12,2 °C 8,9 °C 69 % 1021,2 hPa 0,0 l/m² 4 min 474 W/m² 57,9 km/h (7 Bft) 100,00 %
12.03.2026 12:14 10,8 °C 11,7 °C 8,3 °C 69 % 1021,2 hPa 0,0 l/m² 0 min 218 W/m² 38,6 km/h (5 Bft) 97,87 %
12.03.2026 12:16 10,8 °C 12,8 °C 8,3 °C 69 % 1021,1 hPa 0,0 l/m² 2 min 585 W/m² 29,0 km/h (5 Bft) 95,92 %
12.03.2026 12:18 10,9 °C 13,3 °C 8,9 °C 71 % 1021,1 hPa 0,0 l/m² 2 min 742 W/m² 16,1 km/h (3 Bft) 98,00 %
12.03.2026 12:20 11,0 °C 12,8 °C 8,9 °C 71 % 1021,1 hPa 0,0 l/m² 0 min 242 W/m² 25,7 km/h (4 Bft) 94,74 %
12.03.2026 12:22 11,0 °C 13,3 °C 8,9 °C 70 % 1021,1 hPa 0,0 l/m² 0 min 260 W/m² 25,7 km/h (4 Bft) 95,74 %
12.03.2026 12:24 11,1 °C 15,0 °C 9,4 °C 70 % 1021,1 hPa 0,0 l/m² 2 min 459 W/m² 29,0 km/h (5 Bft) 98,00 %
12.03.2026 12:26 11,2 °C 15,6 °C 10,0 °C 70 % 1020,9 hPa 0,0 l/m² 2 min 742 W/m² 22,5 km/h (4 Bft) 97,83 %
12.03.2026 12:28 11,3 °C 17,2 °C 11,1 °C 70 % 1021,0 hPa 0,0 l/m² 2 min 683 W/m² 22,5 km/h (4 Bft) 98,00 %
12.03.2026 12:30 11,5 °C 16,7 °C 11,1 °C 70 % 1021,0 hPa 0,0 l/m² 2 min 624 W/m² 41,8 km/h (6 Bft) 97,87 %
12.03.2026 12:32 11,6 °C 16,1 °C 10,6 °C 68 % 1021,0 hPa 0,0 l/m² 2 min 743 W/m² 35,4 km/h (5 Bft) 97,87 %
12.03.2026 12:34 11,7 °C 16,1 °C 10,6 °C 68 % 1021,0 hPa 0,0 l/m² 2 min 472 W/m² 25,7 km/h (4 Bft) 97,87 %
12.03.2026 12:36 11,7 °C 16,1 °C 10,6 °C 68 % 1021,0 hPa 0,0 l/m² 2 min 451 W/m² 38,6 km/h (5 Bft) 97,87 %
12.03.2026 12:38 11,7 °C 16,1 °C 10,0 °C 67 % 1021,0 hPa 0,0 l/m² 2 min 617 W/m² 32,2 km/h (5 Bft) 97,83 %
12.03.2026 12:40 11,8 °C 16,7 °C 10,0 °C 68 % 1021,0 hPa 0,0 l/m² 2 min 789 W/m² 29,0 km/h (5 Bft) 97,87 %
12.03.2026 12:42 11,8 °C 15,6 °C 9,4 °C 67 % 1020,9 hPa 0,0 l/m² 2 min 397 W/m² 57,9 km/h (7 Bft) 98,00 %
12.03.2026 12:44 11,8 °C 15,6 °C 9,4 °C 67 % 1020,9 hPa 0,0 l/m² 2 min 357 W/m² 29,0 km/h (5 Bft) 95,74 %
12.03.2026 12:46 11,9 °C 15,6 °C 9,4 °C 67 % 1020,9 hPa 0,0 l/m² 2 min 342 W/m² 25,7 km/h (4 Bft) 97,87 %
12.03.2026 12:48 11,9 °C 14,4 °C 9,4 °C 66 % 1020,9 hPa 0,0 l/m² 0 min 272 W/m² 32,2 km/h (5 Bft) 97,83 %
12.03.2026 12:50 11,9 °C 13,9 °C 8,9 °C 67 % 1020,8 hPa 0,0 l/m² 0 min 271 W/m² 35,4 km/h (5 Bft) 97,87 %
12.03.2026 12:52 11,9 °C 14,4 °C 8,9 °C 66 % 1020,8 hPa 0,0 l/m² 0 min 254 W/m² 35,4 km/h (5 Bft) 97,87 %
12.03.2026 12:54 11,9 °C 13,9 °C 8,9 °C 66 % 1020,8 hPa 0,0 l/m² 0 min 262 W/m² 41,8 km/h (6 Bft) 97,87 %
12.03.2026 12:56 11,8 °C 13,9 °C 8,9 °C 66 % 1020,7 hPa 0,0 l/m² 0 min 284 W/m² 22,5 km/h (4 Bft) 97,87 %
12.03.2026 12:58 11,8 °C 14,4 °C 8,9 °C 66 % 1020,7 hPa 0,0 l/m² 2 min 464 W/m² 38,6 km/h (5 Bft) 95,74 %
12.03.2026 13:00 11,9 °C 16,7 °C 8,9 °C 67 % 1020,6 hPa 0,0 l/m² 2 min 670 W/m² 25,7 km/h (4 Bft) 97,83 %
12.03.2026 13:02 12,0 °C 14,4 °C 8,9 °C 67 % 1020,6 hPa 0,0 l/m² 2 min 471 W/m² 38,6 km/h (5 Bft) 97,87 %
12.03.2026 13:04 12,0 °C 15,0 °C 8,9 °C 66 % 1020,6 hPa 0,0 l/m² 0 min 262 W/m² 41,8 km/h (6 Bft) 95,74 %
12.03.2026 13:06 11,9 °C 13,9 °C 8,9 °C 66 % 1020,5 hPa 0,0 l/m² 0 min 271 W/m² 35,4 km/h (5 Bft) 97,87 %
12.03.2026 13:08 11,9 °C 13,3 °C 8,9 °C 66 % 1020,4 hPa 0,0 l/m² 2 min 290 W/m² 35,4 km/h (5 Bft) 97,92 %
12.03.2026 13:10 11,9 °C 12,8 °C 8,9 °C 66 % 1020,5 hPa 0,0 l/m² 0 min 269 W/m² 38,6 km/h (5 Bft) 97,87 %
12.03.2026 13:12 11,8 °C 12,8 °C 8,3 °C 66 % 1020,4 hPa 0,0 l/m² 0 min 249 W/m² 32,2 km/h (5 Bft) 95,65 %
12.03.2026 13:14 11,8 °C 15,0 °C 8,9 °C 67 % 1020,4 hPa 0,0 l/m² 2 min 385 W/m² 22,5 km/h (4 Bft) 95,74 %
12.03.2026 13:16 11,9 °C 15,6 °C 8,9 °C 67 % 1020,3 hPa 0,0 l/m² 2 min 661 W/m² 25,7 km/h (4 Bft) 97,87 %
12.03.2026 13:18 12,1 °C 14,4 °C 8,9 °C 68 % 1020,4 hPa 0,0 l/m² 2 min 304 W/m² 25,7 km/h (4 Bft) 95,74 %
12.03.2026 13:20 12,1 °C 13,9 °C 8,9 °C 67 % 1020,3 hPa 0,0 l/m² 0 min 245 W/m² 25,7 km/h (4 Bft) 95,74 %
12.03.2026 13:22 12,1 °C 13,3 °C 8,9 °C 67 % 1020,2 hPa 0,0 l/m² 0 min 230 W/m² 22,5 km/h (4 Bft) 97,87 %
12.03.2026 13:24 12,1 °C 13,3 °C 8,9 °C 67 % 1020,2 hPa 0,0 l/m² 0 min 268 W/m² 25,7 km/h (4 Bft) 95,65 %
12.03.2026 13:26 12,1 °C 15,0 °C 8,9 °C 67 % 1020,2 hPa 0,0 l/m² 2 min 343 W/m² 35,4 km/h (5 Bft) 91,49 %
12.03.2026 13:28 12,3 °C 17,2 °C 8,9 °C 66 % 1020,1 hPa 0,0 l/m² 2 min 469 W/m² 25,7 km/h (4 Bft) 95,74 %
12.03.2026 13:30 12,4 °C 17,8 °C 9,4 °C 66 % 1020,1 hPa 0,0 l/m² 2 min 697 W/m² 29,0 km/h (5 Bft) 97,87 %
12.03.2026 13:32 12,6 °C 17,2 °C 9,4 °C 66 % 1020,1 hPa 0,0 l/m² 2 min 687 W/m² 38,6 km/h (5 Bft) 97,87 %
12.03.2026 13:34 12,7 °C 17,2 °C 8,9 °C 65 % 1020,1 hPa 0,0 l/m² 2 min 674 W/m² 35,4 km/h (5 Bft) 97,83 %
12.03.2026 13:36 12,8 °C 17,2 °C 8,9 °C 65 % 1020,0 hPa 0,0 l/m² 2 min 649 W/m² 32,2 km/h (5 Bft) 95,74 %
12.03.2026 13:38 12,8 °C 18,3 °C 8,9 °C 64 % 1020,0 hPa 0,0 l/m² 2 min 622 W/m² 35,4 km/h (5 Bft) 95,74 %
12.03.2026 13:40 12,9 °C 18,3 °C 8,9 °C 64 % 1020,0 hPa 0,0 l/m² 2 min 642 W/m² 48,3 km/h (6 Bft) 95,74 %
12.03.2026 13:42 13,0 °C 16,7 °C 8,9 °C 64 % 1020,0 hPa 0,0 l/m² 2 min 602 W/m² 25,7 km/h (4 Bft) 95,74 %
12.03.2026 13:44 12,9 °C 14,4 °C 8,9 °C 64 % 1020,0 hPa 0,0 l/m² 0 min 254 W/m² 41,8 km/h (6 Bft) 93,62 %
12.03.2026 13:46 12,8 °C 16,1 °C 8,9 °C 64 % 1019,9 hPa 0,0 l/m² 2 min 301 W/m² 22,5 km/h (4 Bft) 95,65 %
12.03.2026 13:48 12,8 °C 16,7 °C 9,4 °C 64 % 1020,0 hPa 0,0 l/m² 2 min 301 W/m² 25,7 km/h (4 Bft) 93,62 %
12.03.2026 13:50 12,9 °C 16,7 °C 8,9 °C 64 % 1019,9 hPa 0,0 l/m² 2 min 301 W/m² 35,4 km/h (5 Bft) 95,74 %
12.03.2026 13:52 13,0 °C 17,2 °C 8,9 °C 64 % 1019,9 hPa 0,0 l/m² 2 min 474 W/m² 45,1 km/h (6 Bft) 95,74 %
12.03.2026 13:54 13,0 °C 18,3 °C 9,4 °C 64 % 1019,7 hPa 0,0 l/m² 2 min 716 W/m² 35,4 km/h (5 Bft) 95,74 %
12.03.2026 13:56 13,1 °C 18,9 °C 9,4 °C 63 % 1019,8 hPa 0,0 l/m² 2 min 694 W/m² 29,0 km/h (5 Bft) 97,87 %
12.03.2026 13:58 13,2 °C 18,9 °C 9,4 °C 63 % 1019,7 hPa 0,0 l/m² 2 min 656 W/m² 32,2 km/h (5 Bft) 95,65 %
12.03.2026 14:00 13,3 °C 18,9 °C 9,4 °C 63 % 1019,7 hPa 0,0 l/m² 2 min 652 W/m² 19,3 km/h (3 Bft) 95,74 %
12.03.2026 14:02 13,4 °C 17,8 °C 9,4 °C 62 % 1019,6 hPa 0,0 l/m² 2 min 356 W/m² 35,4 km/h (5 Bft) 93,62 %
12.03.2026 14:04 13,4 °C 18,9 °C 9,4 °C 63 % 1019,6 hPa 0,0 l/m² 0 min 246 W/m² 22,5 km/h (4 Bft) 95,74 %
12.03.2026 14:06 13,5 °C 17,8 °C 9,4 °C 62 % 1019,6 hPa 0,0 l/m² 2 min 605 W/m² 29,0 km/h (5 Bft) 95,74 %
12.03.2026 14:08 13,4 °C 16,7 °C 9,4 °C 62 % 1019,5 hPa 0,0 l/m² 2 min 407 W/m² 25,7 km/h (4 Bft) 95,74 %
12.03.2026 14:10 13,5 °C 17,8 °C 9,4 °C 63 % 1019,6 hPa 0,0 l/m² 2 min 465 W/m² 16,1 km/h (3 Bft) 100,00 %
12.03.2026 14:12 13,6 °C 18,3 °C 9,4 °C 63 % 1019,5 hPa 0,0 l/m² 2 min 635 W/m² 25,7 km/h (4 Bft) 97,44 %
12.03.2026 14:14 13,6 °C 18,9 °C 9,4 °C 62 % 1019,5 hPa 0,0 l/m² 2 min 591 W/m² 38,6 km/h (5 Bft) 97,83 %
12.03.2026 14:16 13,5 °C 17,2 °C 9,4 °C 62 % 1019,5 hPa 0,0 l/m² 2 min 502 W/m² 45,1 km/h (6 Bft) 100,00 %
12.03.2026 14:18 13,4 °C 17,2 °C 9,4 °C 62 % 1019,4 hPa 0,0 l/m² 2 min 513 W/m² 35,4 km/h (5 Bft) 97,87 %
12.03.2026 14:20 13,4 °C 17,2 °C 9,4 °C 62 % 1019,4 hPa 0,0 l/m² 2 min 517 W/m² 32,2 km/h (5 Bft) 98,15 %
12.03.2026 14:22 13,4 °C 16,7 °C 9,4 °C 62 % 1019,4 hPa 0,0 l/m² 2 min 531 W/m² 38,6 km/h (5 Bft) 100,00 %
12.03.2026 14:24 13,4 °C 16,7 °C 9,4 °C 62 % 1019,3 hPa 0,0 l/m² 2 min 483 W/m² 29,0 km/h (5 Bft) 100,00 %
12.03.2026 14:26 13,3 °C 16,1 °C 8,9 °C 62 % 1019,3 hPa 0,0 l/m² 2 min 474 W/m² 41,8 km/h (6 Bft) 100,00 %
12.03.2026 14:28 13,3 °C 16,7 °C 8,9 °C 63 % 1019,3 hPa 0,0 l/m² 2 min 485 W/m² 22,5 km/h (4 Bft) 100,00 %
12.03.2026 14:30 13,3 °C 17,2 °C 9,4 °C 63 % 1019,2 hPa 0,0 l/m² 2 min 499 W/m² 38,6 km/h (5 Bft) 100,00 %
12.03.2026 14:32 13,3 °C 17,2 °C 9,4 °C 63 % 1019,3 hPa 0,0 l/m² 2 min 487 W/m² 22,5 km/h (4 Bft) 100,00 %
12.03.2026 14:34 13,3 °C 16,7 °C 8,9 °C 62 % 1019,2 hPa 0,0 l/m² 2 min 433 W/m² 29,0 km/h (5 Bft) 100,00 %
12.03.2026 14:36 13,3 °C 16,1 °C 8,9 °C 62 % 1019,2 hPa 0,0 l/m² 2 min 413 W/m² 51,5 km/h (7 Bft) 98,11 %
12.03.2026 14:38 13,3 °C 16,1 °C 8,9 °C 62 % 1019,1 hPa 0,0 l/m² 2 min 448 W/m² 35,4 km/h (5 Bft) 100,00 %
12.03.2026 14:40 13,2 °C 16,7 °C 8,9 °C 62 % 1019,1 hPa 0,0 l/m² 2 min 523 W/m² 35,4 km/h (5 Bft) 95,92 %
12.03.2026 14:42 13,2 °C 16,7 °C 8,9 °C 62 % 1019,2 hPa 0,0 l/m² 2 min 504 W/m² 48,3 km/h (6 Bft) 100,00 %
12.03.2026 14:44 13,3 °C 16,7 °C 8,9 °C 61 % 1019,2 hPa 0,0 l/m² 2 min 473 W/m² 29,0 km/h (5 Bft) 100,00 %
12.03.2026 14:46 13,3 °C 16,7 °C 9,4 °C 62 % 1019,2 hPa 0,0 l/m² 2 min 442 W/m² 25,7 km/h (4 Bft) 100,00 %
12.03.2026 14:48 13,4 °C 16,7 °C 9,4 °C 62 % 1019,3 hPa 0,0 l/m² 2 min 430 W/m² 22,5 km/h (4 Bft) 97,87 %
12.03.2026 14:50 13,4 °C 16,1 °C 9,4 °C 62 % 1019,4 hPa 0,0 l/m² 2 min 400 W/m² 29,0 km/h (5 Bft) 100,00 %
12.03.2026 14:52 13,4 °C 15,6 °C 9,4 °C 62 % 1019,3 hPa 0,0 l/m² 2 min 339 W/m² 32,2 km/h (5 Bft) 97,87 %
12.03.2026 14:54 13,4 °C 15,6 °C 8,9 °C 61 % 1019,4 hPa 0,0 l/m² 2 min 435 W/m² 35,4 km/h (5 Bft) 97,87 %
12.03.2026 14:56 13,4 °C 15,6 °C 8,9 °C 61 % 1019,3 hPa 0,0 l/m² 2 min 398 W/m² 29,0 km/h (5 Bft) 100,00 %
12.03.2026 14:58 13,4 °C 15,6 °C 8,9 °C 62 % 1019,4 hPa 0,0 l/m² 2 min 382 W/m² 29,0 km/h (5 Bft) 100,00 %
12.03.2026 15:00 13,4 °C 15,6 °C 9,4 °C 62 % 1019,3 hPa 0,0 l/m² 2 min 363 W/m² 29,0 km/h (5 Bft) 100,00 %
12.03.2026 15:02 13,3 °C 15,6 °C 8,9 °C 61 % 1019,3 hPa 0,0 l/m² 2 min 374 W/m² 41,8 km/h (6 Bft) 100,00 %
12.03.2026 15:04 13,4 °C 15,6 °C 8,9 °C 61 % 1019,3 hPa 0,0 l/m² 2 min 352 W/m² 16,1 km/h (3 Bft) 97,56 %
12.03.2026 15:06 13,4 °C 15,0 °C 8,9 °C 62 % 1019,3 hPa 0,0 l/m² 2 min 303 W/m² 29,0 km/h (5 Bft) 100,00 %
12.03.2026 15:08 13,4 °C 15,0 °C 8,9 °C 62 % 1019,2 hPa 0,0 l/m² 2 min 280 W/m² 29,0 km/h (5 Bft) 100,00 %
12.03.2026 15:10 13,4 °C 14,4 °C 8,9 °C 62 % 1019,3 hPa 0,0 l/m² 2 min 235 W/m² 25,7 km/h (4 Bft) 100,00 %
12.03.2026 15:12 13,3 °C 13,9 °C 8,9 °C 62 % 1019,3 hPa 0,0 l/m² 2 min 237 W/m² 29,0 km/h (5 Bft) 100,00 %
12.03.2026 15:14 13,1 °C 13,9 °C 8,9 °C 62 % 1019,3 hPa 0,0 l/m² 2 min 250 W/m² 25,7 km/h (4 Bft) 100,00 %
12.03.2026 15:16 13,1 °C 13,9 °C 8,9 °C 62 % 1019,2 hPa 0,0 l/m² 2 min 248 W/m² 22,5 km/h (4 Bft) 100,00 %
12.03.2026 15:18 13,0 °C 13,9 °C 8,9 °C 62 % 1019,2 hPa 0,0 l/m² 2 min 232 W/m² 25,7 km/h (4 Bft) 100,00 %
12.03.2026 15:20 12,8 °C 13,3 °C 8,9 °C 62 % 1019,3 hPa 0,0 l/m² 2 min 229 W/m² 48,3 km/h (6 Bft) 100,00 %
12.03.2026 15:22 12,7 °C 13,3 °C 8,3 °C 62 % 1019,2 hPa 0,0 l/m² 2 min 228 W/m² 45,1 km/h (6 Bft) 100,00 %
12.03.2026 15:24 12,7 °C 13,3 °C 8,3 °C 62 % 1019,2 hPa 0,0 l/m² 2 min 230 W/m² 32,2 km/h (5 Bft) 100,00 %
12.03.2026 15:26 12,7 °C 13,3 °C 8,9 °C 62 % 1019,2 hPa 0,0 l/m² 2 min 222 W/m² 19,3 km/h (3 Bft) 100,00 %
12.03.2026 15:28 12,7 °C 13,3 °C 8,9 °C 63 % 1019,2 hPa 0,0 l/m² 2 min 221 W/m² 19,3 km/h (3 Bft) 100,00 %
12.03.2026 15:30 12,7 °C 13,9 °C 8,9 °C 63 % 1019,2 hPa 0,0 l/m² 2 min 221 W/m² 22,5 km/h (4 Bft) 100,00 %
12.03.2026 15:32 12,7 °C 13,3 °C 8,9 °C 62 % 1019,1 hPa 0,0 l/m² 2 min 215 W/m² 29,0 km/h (5 Bft) 100,00 %
12.03.2026 15:34 12,7 °C 13,3 °C 8,9 °C 62 % 1019,1 hPa 0,0 l/m² 2 min 213 W/m² 22,5 km/h (4 Bft) 100,00 %
12.03.2026 15:36 12,7 °C 13,3 °C 8,3 °C 62 % 1019,1 hPa 0,0 l/m² 2 min 216 W/m² 19,3 km/h (3 Bft) 97,87 %
12.03.2026 15:38 12,7 °C 13,9 °C 8,9 °C 63 % 1019,1 hPa 0,0 l/m² 2 min 269 W/m² 25,7 km/h (4 Bft) 100,00 %
12.03.2026 15:40 12,8 °C 14,4 °C 8,9 °C 63 % 1019,1 hPa 0,0 l/m² 2 min 360 W/m² 35,4 km/h (5 Bft) 97,87 %
12.03.2026 15:42 12,8 °C 14,4 °C 8,9 °C 62 % 1019,1 hPa 0,0 l/m² 2 min 354 W/m² 32,2 km/h (5 Bft) 93,62 %
12.03.2026 15:44 12,8 °C 15,0 °C 8,9 °C 62 % 1019,0 hPa 0,0 l/m² 2 min 371 W/m² 35,4 km/h (5 Bft) 100,00 %
12.03.2026 15:46 12,9 °C 15,6 °C 8,9 °C 62 % 1019,0 hPa 0,0 l/m² 2 min 402 W/m² 45,1 km/h (6 Bft) 100,00 %
12.03.2026 15:48 13,0 °C 15,6 °C 8,9 °C 62 % 1019,0 hPa 0,0 l/m² 2 min 393 W/m² 25,7 km/h (4 Bft) 100,00 %
12.03.2026 15:50 13,1 °C 15,6 °C 8,9 °C 61 % 1019,0 hPa 0,0 l/m² 2 min 391 W/m² 29,0 km/h (5 Bft) 100,00 %
12.03.2026 15:52 13,2 °C 15,6 °C 8,9 °C 61 % 1019,1 hPa 0,0 l/m² 2 min 381 W/m² 38,6 km/h (5 Bft) 93,62 %
12.03.2026 15:54 13,2 °C 15,6 °C 8,9 °C 61 % 1019,1 hPa 0,0 l/m² 2 min 365 W/m² 22,5 km/h (4 Bft) 97,87 %
12.03.2026 15:56 13,3 °C 15,6 °C 8,9 °C 62 % 1019,0 hPa 0,0 l/m² 2 min 310 W/m² 22,5 km/h (4 Bft) 97,83 %
12.03.2026 15:58 13,4 °C 15,0 °C 8,9 °C 62 % 1019,0 hPa 0,0 l/m² 2 min 299 W/m² 29,0 km/h (5 Bft) 97,87 %
12.03.2026 16:00 13,3 °C 14,4 °C 8,9 °C 61 % 1018,9 hPa 0,0 l/m² 2 min 237 W/m² 25,7 km/h (4 Bft) 91,49 %
12.03.2026 16:02 13,3 °C 15,0 °C 8,9 °C 61 % 1018,9 hPa 0,0 l/m² 2 min 350 W/m² 35,4 km/h (5 Bft) 95,74 %
12.03.2026 16:04 13,3 °C 15,0 °C 8,9 °C 61 % 1018,9 hPa 0,0 l/m² 2 min 374 W/m² 25,7 km/h (4 Bft) 95,24 %
12.03.2026 16:06 13,4 °C 15,6 °C 8,9 °C 60 % 1018,9 hPa 0,0 l/m² 2 min 369 W/m² 35,4 km/h (5 Bft) 95,74 %
12.03.2026 16:08 13,4 °C 15,6 °C 8,9 °C 61 % 1018,9 hPa 0,0 l/m² 2 min 370 W/m² 22,5 km/h (4 Bft) 93,62 %
12.03.2026 16:10 13,5 °C 15,6 °C 8,9 °C 61 % 1018,9 hPa 0,0 l/m² 2 min 347 W/m² 29,0 km/h (5 Bft) 93,48 %
12.03.2026 16:12 13,6 °C 15,6 °C 8,9 °C 60 % 1018,7 hPa 0,0 l/m² 2 min 340 W/m² 25,7 km/h (4 Bft) 93,62 %
12.03.2026 16:14 13,6 °C 15,6 °C 8,9 °C 61 % 1018,7 hPa 0,0 l/m² 2 min 326 W/m² 22,5 km/h (4 Bft) 93,62 %
12.03.2026 16:16 13,6 °C 15,6 °C 8,9 °C 61 % 1018,7 hPa 0,0 l/m² 2 min 309 W/m² 29,0 km/h (5 Bft) 92,68 %
12.03.2026 16:18 13,6 °C 15,6 °C 8,9 °C 61 % 1018,7 hPa 0,0 l/m² 2 min 327 W/m² 19,3 km/h (3 Bft) 92,45 %
12.03.2026 16:20 13,6 °C 15,0 °C 8,9 °C 61 % 1018,7 hPa 0,0 l/m² 2 min 252 W/m² 32,2 km/h (5 Bft) 93,62 %
12.03.2026 16:22 13,6 °C 15,0 °C 8,9 °C 61 % 1018,6 hPa 0,0 l/m² 2 min 229 W/m² 22,5 km/h (4 Bft) 89,13 %
12.03.2026 16:24 13,4 °C 14,4 °C 8,9 °C 60 % 1018,6 hPa 0,0 l/m² 2 min 303 W/m² 32,2 km/h (5 Bft) 93,62 %
12.03.2026 16:26 13,4 °C 14,4 °C 8,9 °C 61 % 1018,6 hPa 0,0 l/m² 2 min 322 W/m² 22,5 km/h (4 Bft) 91,49 %
12.03.2026 16:28 13,5 °C 13,9 °C 8,9 °C 61 % 1018,6 hPa 0,0 l/m² 2 min 284 W/m² 29,0 km/h (5 Bft) 91,49 %
12.03.2026 16:30 13,4 °C 13,3 °C 8,9 °C 61 % 1018,5 hPa 0,0 l/m² 2 min 251 W/m² 29,0 km/h (5 Bft) 93,62 %
12.03.2026 16:32 13,4 °C 13,3 °C 8,9 °C 61 % 1018,5 hPa 0,0 l/m² 2 min 303 W/m² 22,5 km/h (4 Bft) 91,30 %
12.03.2026 16:34 13,3 °C 12,8 °C 8,9 °C 60 % 1018,4 hPa 0,0 l/m² 2 min 254 W/m² 45,1 km/h (6 Bft) 89,36 %
12.03.2026 16:36 13,2 °C 12,8 °C 8,9 °C 61 % 1018,5 hPa 0,0 l/m² 2 min 192 W/m² 25,7 km/h (4 Bft) 93,62 %
12.03.2026 16:38 13,2 °C 12,8 °C 8,9 °C 61 % 1018,4 hPa 0,0 l/m² 2 min 227 W/m² 38,6 km/h (5 Bft) 97,87 %
12.03.2026 16:40 13,1 °C 12,8 °C 8,3 °C 61 % 1018,4 hPa 0,0 l/m² 2 min 254 W/m² 38,6 km/h (5 Bft) 93,62 %
12.03.2026 16:42 13,1 °C 12,8 °C 8,3 °C 61 % 1018,4 hPa 0,0 l/m² 2 min 201 W/m² 41,8 km/h (6 Bft) 95,74 %
12.03.2026 16:44 13,0 °C 12,8 °C 8,3 °C 61 % 1018,4 hPa 0,0 l/m² 2 min 151 W/m² 32,2 km/h (5 Bft) 93,48 %
12.03.2026 16:46 13,0 °C 12,8 °C 8,3 °C 61 % 1018,4 hPa 0,0 l/m² 2 min 148 W/m² 32,2 km/h (5 Bft) 95,74 %
12.03.2026 16:48 12,9 °C 12,8 °C 8,3 °C 61 % 1018,3 hPa 0,0 l/m² 2 min 208 W/m² 29,0 km/h (5 Bft) 95,74 %
12.03.2026 16:50 12,9 °C 12,2 °C 8,3 °C 61 % 1018,3 hPa 0,0 l/m² 2 min 130 W/m² 25,7 km/h (4 Bft) 95,74 %
12.03.2026 16:52 12,8 °C 12,2 °C 8,3 °C 62 % 1018,3 hPa 0,0 l/m² 2 min 131 W/m² 22,5 km/h (4 Bft) 95,74 %
12.03.2026 16:54 12,8 °C 12,2 °C 8,3 °C 62 % 1018,2 hPa 0,0 l/m² 2 min 138 W/m² 32,2 km/h (5 Bft) 97,87 %
12.03.2026 16:56 12,8 °C 12,2 °C 8,3 °C 62 % 1018,2 hPa 0,0 l/m² 0 min 101 W/m² 29,0 km/h (5 Bft) 97,83 %
12.03.2026 16:58 12,8 °C 12,2 °C 8,3 °C 62 % 1018,1 hPa 0,0 l/m² 2 min 122 W/m² 29,0 km/h (5 Bft) 97,87 %
12.03.2026 17:00 12,7 °C 12,2 °C 8,3 °C 62 % 1018,1 hPa 0,0 l/m² 0 min 113 W/m² 35,4 km/h (5 Bft) 100,00 %
12.03.2026 17:02 12,7 °C 12,2 °C 8,3 °C 62 % 1018,1 hPa 0,0 l/m² 2 min 121 W/m² 38,6 km/h (5 Bft) 97,87 %
12.03.2026 17:04 12,7 °C 12,2 °C 8,3 °C 62 % 1018,1 hPa 0,0 l/m² 0 min 101 W/m² 19,3 km/h (3 Bft) 100,00 %
12.03.2026 17:06 12,7 °C 12,2 °C 7,8 °C 62 % 1018,0 hPa 0,0 l/m² 0 min 77 W/m² 25,7 km/h (4 Bft) 100,00 %
12.03.2026 17:08 12,7 °C 12,2 °C 7,8 °C 63 % 1018,0 hPa 0,0 l/m² 2 min 122 W/m² 19,3 km/h (3 Bft) 100,00 %
12.03.2026 17:10 12,7 °C 12,2 °C 7,8 °C 63 % 1017,9 hPa 0,0 l/m² 2 min 124 W/m² 25,7 km/h (4 Bft) 100,00 %
12.03.2026 17:12 12,7 °C 12,2 °C 7,8 °C 63 % 1017,9 hPa 0,0 l/m² 2 min 112 W/m² 19,3 km/h (3 Bft) 100,00 %
12.03.2026 17:14 12,7 °C 12,2 °C 7,8 °C 63 % 1017,9 hPa 0,0 l/m² 2 min 102 W/m² 19,3 km/h (3 Bft) 100,00 %
12.03.2026 17:16 12,6 °C 12,2 °C 7,8 °C 63 % 1017,8 hPa 0,0 l/m² 2 min 95 W/m² 29,0 km/h (5 Bft) 100,00 %
12.03.2026 17:18 12,6 °C 12,2 °C 7,8 °C 63 % 1017,8 hPa 0,0 l/m² 0 min 80 W/m² 25,7 km/h (4 Bft) 100,00 %
12.03.2026 17:20 12,6 °C 12,2 °C 7,8 °C 63 % 1017,8 hPa 0,0 l/m² 0 min 76 W/m² 25,7 km/h (4 Bft) 100,00 %
12.03.2026 17:22 12,6 °C 12,2 °C 7,8 °C 63 % 1017,7 hPa 0,0 l/m² 0 min 72 W/m² 35,4 km/h (5 Bft) 100,00 %
12.03.2026 17:24 12,6 °C 12,2 °C 7,8 °C 63 % 1017,7 hPa 0,0 l/m² 0 min 70 W/m² 29,0 km/h (5 Bft) 100,00 %
12.03.2026 17:26 12,6 °C 12,2 °C 7,8 °C 63 % 1017,7 hPa 0,0 l/m² 0 min 69 W/m² 16,1 km/h (3 Bft) 100,00 %
12.03.2026 17:28 12,6 °C 12,2 °C 7,8 °C 63 % 1017,6 hPa 0,0 l/m² 0 min 67 W/m² 29,0 km/h (5 Bft) 100,00 %
12.03.2026 17:30 12,6 °C 12,2 °C 7,8 °C 63 % 1017,6 hPa 0,0 l/m² 0 min 64 W/m² 25,7 km/h (4 Bft) 100,00 %
12.03.2026 17:32 12,6 °C 12,2 °C 7,8 °C 64 % 1017,6 hPa 0,0 l/m² 0 min 63 W/m² 29,0 km/h (5 Bft) 97,83 %
12.03.2026 17:34 12,6 °C 12,2 °C 7,8 °C 63 % 1017,6 hPa 0,0 l/m² 0 min 61 W/m² 22,5 km/h (4 Bft) 95,74 %
12.03.2026 17:36 12,6 °C 12,2 °C 7,8 °C 63 % 1017,5 hPa 0,0 l/m² 0 min 59 W/m² 35,4 km/h (5 Bft) 97,87 %
12.03.2026 17:38 12,5 °C 11,7 °C 7,8 °C 63 % 1017,6 hPa 0,0 l/m² 0 min 56 W/m² 25,7 km/h (4 Bft) 100,00 %
12.03.2026 17:40 12,5 °C 11,7 °C 7,8 °C 63 % 1017,5 hPa 0,0 l/m² 0 min 54 W/m² 35,4 km/h (5 Bft) 100,00 %
12.03.2026 17:42 12,5 °C 11,7 °C 7,8 °C 63 % 1017,5 hPa 0,0 l/m² 0 min 50 W/m² 38,6 km/h (5 Bft) 100,00 %
12.03.2026 17:44 12,4 °C 11,7 °C 7,8 °C 63 % 1017,5 hPa 0,0 l/m² 0 min 47 W/m² 16,1 km/h (3 Bft) 97,83 %
12.03.2026 17:46 12,4 °C 11,7 °C 7,8 °C 64 % 1017,5 hPa 0,0 l/m² 0 min 44 W/m² 25,7 km/h (4 Bft) 100,00 %
12.03.2026 17:48 12,4 °C 11,7 °C 7,8 °C 64 % 1017,5 hPa 0,0 l/m² 0 min 41 W/m² 19,3 km/h (3 Bft) 97,87 %
12.03.2026 17:50 12,4 °C 11,7 °C 7,8 °C 64 % 1017,4 hPa 0,0 l/m² 0 min 39 W/m² 16,1 km/h (3 Bft) 100,00 %
12.03.2026 17:52 12,3 °C 11,7 °C 7,8 °C 64 % 1017,5 hPa 0,0 l/m² 0 min 36 W/m² 22,5 km/h (4 Bft) 100,00 %
12.03.2026 17:54 12,3 °C 11,7 °C 7,8 °C 64 % 1017,5 hPa 0,0 l/m² 0 min 32 W/m² 22,5 km/h (4 Bft) 100,00 %
12.03.2026 17:56 12,3 °C 11,7 °C 7,8 °C 64 % 1017,5 hPa 0,0 l/m² 0 min 31 W/m² 19,3 km/h (3 Bft) 97,83 %
12.03.2026 17:58 12,3 °C 11,7 °C 7,8 °C 64 % 1017,4 hPa 0,0 l/m² 0 min 28 W/m² 29,0 km/h (5 Bft) 100,00 %
12.03.2026 18:00 12,2 °C 11,7 °C 7,2 °C 64 % 1017,5 hPa 0,0 l/m² 0 min 26 W/m² 22,5 km/h (4 Bft) 100,00 %
12.03.2026 18:02 12,2 °C 11,1 °C 7,2 °C 64 % 1017,4 hPa 0,0 l/m² 0 min 24 W/m² 19,3 km/h (3 Bft) 100,00 %
12.03.2026 18:04 12,2 °C 11,1 °C 7,2 °C 65 % 1017,5 hPa 0,0 l/m² 0 min 22 W/m² 16,1 km/h (3 Bft) 100,00 %
12.03.2026 18:07 12,1 °C 11,1 °C 7,2 °C 65 % 1017,4 hPa 0,0 l/m² 0 min 19 W/m² 12,9 km/h (3 Bft) 97,47 %
12.03.2026 18:10 12,1 °C 11,1 °C 7,2 °C 65 % 1017,4 hPa 0,0 l/m² 0 min 18 W/m² 12,9 km/h (3 Bft) 97,47 %
12.03.2026 18:12 12,0 °C 11,1 °C 7,2 °C 65 % 1017,4 hPa 0,0 l/m² 0 min 16 W/m² 22,5 km/h (4 Bft) 97,10 %
12.03.2026 18:14 11,9 °C 11,1 °C 7,2 °C 65 % 1017,4 hPa 0,0 l/m² 0 min 15 W/m² 25,7 km/h (4 Bft) 97,92 %
12.03.2026 18:16 11,9 °C 11,1 °C 7,2 °C 65 % 1017,3 hPa 0,0 l/m² 0 min 14 W/m² 19,3 km/h (3 Bft) 97,14 %
12.03.2026 18:18 11,9 °C 11,1 °C 7,2 °C 65 % 1017,3 hPa 0,0 l/m² 0 min 12 W/m² 22,5 km/h (4 Bft) 98,18 %
12.03.2026 18:20 11,9 °C 11,1 °C 7,2 °C 65 % 1017,2 hPa 0,0 l/m² 0 min 11 W/m² 25,7 km/h (4 Bft) 97,87 %
12.03.2026 18:22 11,8 °C 10,6 °C 7,2 °C 66 % 1017,2 hPa 0,0 l/m² 0 min 9 W/m² 19,3 km/h (3 Bft) 97,96 %
12.03.2026 18:24 11,8 °C 10,6 °C 7,2 °C 66 % 1017,2 hPa 0,0 l/m² 0 min 8 W/m² 22,5 km/h (4 Bft) 97,87 %
12.03.2026 18:26 11,8 °C 10,6 °C 7,2 °C 66 % 1017,1 hPa 0,0 l/m² 0 min 7 W/m² 22,5 km/h (4 Bft) 93,75 %
12.03.2026 18:28 11,7 °C 10,6 °C 7,2 °C 65 % 1017,1 hPa 0,0 l/m² 0 min 5 W/m² 25,7 km/h (4 Bft) 94,29 %
12.03.2026 18:30 11,7 °C 10,6 °C 7,2 °C 66 % 1017,0 hPa 0,0 l/m² 0 min 4 W/m² 25,7 km/h (4 Bft) 97,87 %
12.03.2026 18:32 11,7 °C 10,6 °C 7,2 °C 66 % 1017,0 hPa 0,0 l/m² 0 min 0 W/m² 22,5 km/h (4 Bft) 98,15 %
12.03.2026 18:34 11,7 °C 10,6 °C 6,7 °C 66 % 1016,9 hPa 0,0 l/m² 0 min 0 W/m² 29,0 km/h (5 Bft) 98,00 %
12.03.2026 18:36 11,6 °C 10,6 °C 6,7 °C 66 % 1017,0 hPa 0,0 l/m² 0 min 0 W/m² 12,9 km/h (3 Bft) 97,87 %
12.03.2026 18:38 11,6 °C 10,6 °C 6,7 °C 66 % 1017,0 hPa 0,0 l/m² 0 min 0 W/m² 16,1 km/h (3 Bft) 95,74 %
12.03.2026 18:40 11,6 °C 10,6 °C 6,7 °C 67 % 1016,9 hPa 0,0 l/m² 0 min 0 W/m² 19,3 km/h (3 Bft) 95,83 %
12.03.2026 18:42 11,5 °C 10,6 °C 6,7 °C 67 % 1016,9 hPa 0,0 l/m² 0 min 0 W/m² 19,3 km/h (3 Bft) 97,83 %
12.03.2026 18:44 11,4 °C 10,6 °C 6,7 °C 67 % 1016,9 hPa 0,0 l/m² 0 min 0 W/m² 16,1 km/h (3 Bft) 100,00 %
12.03.2026 18:46 11,4 °C 10,0 °C 6,7 °C 67 % 1016,9 hPa 0,0 l/m² 0 min 0 W/m² 12,9 km/h (3 Bft) 94,29 %
12.03.2026 18:48 11,4 °C 10,6 °C 6,7 °C 67 % 1016,9 hPa 0,0 l/m² 0 min 0 W/m² 32,2 km/h (5 Bft) 98,18 %
12.03.2026 18:50 11,3 °C 10,6 °C 6,7 °C 67 % 1017,0 hPa 0,0 l/m² 0 min 0 W/m² 25,7 km/h (4 Bft) 54,17 %
12.03.2026 18:52 11,3 °C 10,0 °C 6,7 °C 67 % 1016,9 hPa 0,0 l/m² 0 min 0 W/m² 16,1 km/h (3 Bft) 93,75 %
12.03.2026 18:54 11,3 °C 10,0 °C 6,7 °C 67 % 1016,9 hPa 0,0 l/m² 0 min 0 W/m² 22,5 km/h (4 Bft) 95,65 %
12.03.2026 18:56 11,3 °C 10,0 °C 6,7 °C 68 % 1016,9 hPa 0,0 l/m² 0 min 0 W/m² 12,9 km/h (3 Bft) 95,74 %
12.03.2026 18:58 11,2 °C 10,0 °C 6,7 °C 68 % 1016,9 hPa 0,0 l/m² 0 min 0 W/m² 19,3 km/h (3 Bft) 94,29 %
12.03.2026 19:00 11,2 °C 10,0 °C 6,1 °C 68 % 1016,9 hPa 0,0 l/m² 0 min 0 W/m² 16,1 km/h (3 Bft) 93,62 %
12.03.2026 19:02 11,1 °C 10,0 °C 6,1 °C 69 % 1016,9 hPa 0,0 l/m² 0 min 0 W/m² 12,9 km/h (3 Bft) 94,55 %
12.03.2026 19:04 11,1 °C 10,0 °C 6,1 °C 69 % 1016,9 hPa 0,0 l/m² 0 min 0 W/m² 12,9 km/h (3 Bft) 96,00 %
12.03.2026 19:06 11,1 °C 10,0 °C 6,1 °C 69 % 1016,9 hPa 0,0 l/m² 0 min 0 W/m² 6,4 km/h (2 Bft) 95,83 %
12.03.2026 19:08 11,0 °C 9,4 °C 6,1 °C 69 % 1016,9 hPa 0,0 l/m² 0 min 0 W/m² 6,4 km/h (2 Bft) 94,29 %
12.03.2026 19:10 10,9 °C 9,4 °C 6,1 °C 70 % 1016,8 hPa 0,0 l/m² 0 min 0 W/m² 12,9 km/h (3 Bft) 95,74 %
12.03.2026 19:12 10,9 °C 9,4 °C 6,1 °C 70 % 1016,8 hPa 0,0 l/m² 0 min 0 W/m² 9,7 km/h (2 Bft) 96,36 %
12.03.2026 19:14 10,8 °C 9,4 °C 6,1 °C 70 % 1016,8 hPa 0,0 l/m² 0 min 0 W/m² 19,3 km/h (3 Bft) 94,00 %
12.03.2026 19:16 10,8 °C 9,4 °C 6,1 °C 70 % 1016,8 hPa 0,0 l/m² 0 min 0 W/m² 12,9 km/h (3 Bft) 95,74 %
12.03.2026 19:18 10,8 °C 9,4 °C 6,1 °C 70 % 1016,8 hPa 0,0 l/m² 0 min 0 W/m² 9,7 km/h (2 Bft) 94,44 %
12.03.2026 19:20 10,8 °C 9,4 °C 6,1 °C 71 % 1016,8 hPa 0,0 l/m² 0 min 0 W/m² 16,1 km/h (3 Bft) 94,44 %
12.03.2026 19:22 10,7 °C 9,4 °C 6,1 °C 71 % 1016,8 hPa 0,0 l/m² 0 min 0 W/m² 16,1 km/h (3 Bft) 92,00 %
12.03.2026 19:24 10,7 °C 9,4 °C 6,1 °C 71 % 1016,8 hPa 0,0 l/m² 0 min 0 W/m² 12,9 km/h (3 Bft) 95,74 %
12.03.2026 19:26 10,6 °C 9,4 °C 5,6 °C 71 % 1016,8 hPa 0,0 l/m² 0 min 0 W/m² 9,7 km/h (2 Bft) 97,92 %
12.03.2026 19:28 10,6 °C 9,4 °C 5,6 °C 71 % 1016,7 hPa 0,0 l/m² 0 min 0 W/m² 6,4 km/h (2 Bft) 97,14 %
12.03.2026 19:30 10,6 °C 9,4 °C 5,6 °C 71 % 1016,8 hPa 0,0 l/m² 0 min 0 W/m² 6,4 km/h (2 Bft) 98,15 %
12.03.2026 19:32 10,6 °C 9,4 °C 5,6 °C 71 % 1016,8 hPa 0,0 l/m² 0 min 0 W/m² 12,9 km/h (3 Bft) 96,00 %
12.03.2026 19:34 10,5 °C 9,4 °C 5,6 °C 72 % 1016,7 hPa 0,0 l/m² 0 min 0 W/m² 16,1 km/h (3 Bft) 95,74 %
12.03.2026 19:36 10,4 °C 9,4 °C 5,6 °C 72 % 1016,7 hPa 0,0 l/m² 0 min 0 W/m² 22,5 km/h (4 Bft) 97,87 %
12.03.2026 19:38 10,4 °C 9,4 °C 5,6 °C 72 % 1016,7 hPa 0,0 l/m² 0 min 0 W/m² 19,3 km/h (3 Bft) 97,87 %
12.03.2026 19:40 10,4 °C 9,4 °C 5,6 °C 72 % 1016,6 hPa 0,0 l/m² 0 min 0 W/m² 16,1 km/h (3 Bft) 97,87 %
12.03.2026 19:42 10,3 °C 9,4 °C 5,6 °C 72 % 1016,6 hPa 0,0 l/m² 0 min 0 W/m² 22,5 km/h (4 Bft) 100,00 %
12.03.2026 19:44 10,3 °C 9,4 °C 5,6 °C 72 % 1016,6 hPa 0,0 l/m² 0 min 0 W/m² 16,1 km/h (3 Bft) 100,00 %
12.03.2026 19:46 10,3 °C 9,4 °C 5,6 °C 72 % 1016,6 hPa 0,0 l/m² 0 min 0 W/m² 16,1 km/h (3 Bft) 100,00 %
12.03.2026 19:48 10,3 °C 9,4 °C 5,6 °C 72 % 1016,6 hPa 0,0 l/m² 0 min 0 W/m² 12,9 km/h (3 Bft) 97,87 %
12.03.2026 19:50 10,2 °C 9,4 °C 5,6 °C 72 % 1016,6 hPa 0,0 l/m² 0 min 0 W/m² 16,1 km/h (3 Bft) 100,00 %
12.03.2026 19:52 10,2 °C 9,4 °C 5,6 °C 72 % 1016,5 hPa 0,0 l/m² 0 min 0 W/m² 19,3 km/h (3 Bft) 100,00 %
12.03.2026 19:54 10,2 °C 9,4 °C 5,6 °C 72 % 1016,5 hPa 0,0 l/m² 0 min 0 W/m² 19,3 km/h (3 Bft) 100,00 %
12.03.2026 19:56 10,2 °C 9,4 °C 5,6 °C 72 % 1016,5 hPa 0,0 l/m² 0 min 0 W/m² 16,1 km/h (3 Bft) 100,00 %
12.03.2026 19:58 10,2 °C 9,4 °C 5,6 °C 72 % 1016,5 hPa 0,0 l/m² 0 min 0 W/m² 16,1 km/h (3 Bft) 97,87 %
12.03.2026 20:00 10,2 °C 9,4 °C 5,6 °C 72 % 1016,5 hPa 0,0 l/m² 0 min 0 W/m² 16,1 km/h (3 Bft) 97,87 %
12.03.2026 20:02 10,2 °C 9,4 °C 5,6 °C 72 % 1016,4 hPa 0,0 l/m² 0 min 0 W/m² 19,3 km/h (3 Bft) 97,87 %
12.03.2026 20:04 10,1 °C 9,4 °C 5,6 °C 72 % 1016,4 hPa 0,0 l/m² 0 min 0 W/m² 19,3 km/h (3 Bft) 97,87 %
12.03.2026 20:06 10,1 °C 9,4 °C 5,6 °C 72 % 1016,3 hPa 0,0 l/m² 0 min 0 W/m² 19,3 km/h (3 Bft) 95,74 %
12.03.2026 20:08 10,1 °C 9,4 °C 5,6 °C 72 % 1016,3 hPa 0,0 l/m² 0 min 0 W/m² 22,5 km/h (4 Bft) 97,87 %
12.03.2026 20:10 10,1 °C 9,4 °C 5,6 °C 72 % 1016,3 hPa 0,0 l/m² 0 min 0 W/m² 16,1 km/h (3 Bft) 95,74 %
12.03.2026 20:12 10,1 °C 9,4 °C 5,6 °C 72 % 1016,3 hPa 0,0 l/m² 0 min 0 W/m² 12,9 km/h (3 Bft) 97,87 %
12.03.2026 20:14 10,1 °C 9,4 °C 5,6 °C 72 % 1016,2 hPa 0,0 l/m² 0 min 0 W/m² 12,9 km/h (3 Bft) 97,87 %
12.03.2026 20:16 10,1 °C 9,4 °C 5,6 °C 72 % 1016,2 hPa 0,0 l/m² 0 min 0 W/m² 19,3 km/h (3 Bft) 97,83 %
12.03.2026 20:18 10,1 °C 8,9 °C 5,6 °C 72 % 1016,3 hPa 0,0 l/m² 0 min 0 W/m² 19,3 km/h (3 Bft) 97,87 %
12.03.2026 20:20 10,1 °C 8,9 °C 5,6 °C 72 % 1016,2 hPa 0,0 l/m² 0 min 0 W/m² 16,1 km/h (3 Bft) 97,87 %
12.03.2026 20:22 10,1 °C 8,9 °C 5,6 °C 72 % 1016,3 hPa 0,0 l/m² 0 min 0 W/m² 12,9 km/h (3 Bft) 97,87 %
12.03.2026 20:24 10,1 °C 8,9 °C 5,6 °C 72 % 1016,3 hPa 0,0 l/m² 0 min 0 W/m² 12,9 km/h (3 Bft) 97,87 %
12.03.2026 20:26 10,0 °C 8,9 °C 5,6 °C 72 % 1016,3 hPa 0,0 l/m² 0 min 0 W/m² 12,9 km/h (3 Bft) 97,87 %
12.03.2026 20:28 10,0 °C 8,9 °C 5,6 °C 72 % 1016,2 hPa 0,0 l/m² 0 min 0 W/m² 16,1 km/h (3 Bft) 97,83 %
12.03.2026 20:30 10,0 °C 8,9 °C 5,6 °C 72 % 1016,2 hPa 0,0 l/m² 0 min 0 W/m² 16,1 km/h (3 Bft) 97,87 %
12.03.2026 20:32 9,9 °C 8,9 °C 5,6 °C 72 % 1016,2 hPa 0,0 l/m² 0 min 0 W/m² 16,1 km/h (3 Bft) 100,00 %
12.03.2026 20:34 9,9 °C 8,9 °C 5,6 °C 72 % 1016,2 hPa 0,0 l/m² 0 min 0 W/m² 16,1 km/h (3 Bft) 100,00 %
12.03.2026 20:36 9,9 °C 8,9 °C 5,6 °C 73 % 1016,2 hPa 0,0 l/m² 0 min 0 W/m² 22,5 km/h (4 Bft) 100,00 %
12.03.2026 20:38 9,9 °C 8,9 °C 5,6 °C 73 % 1016,2 hPa 0,0 l/m² 0 min 0 W/m² 16,1 km/h (3 Bft) 97,87 %
12.03.2026 20:40 9,9 °C 8,9 °C 5,6 °C 73 % 1016,2 hPa 0,0 l/m² 0 min 0 W/m² 19,3 km/h (3 Bft) 97,83 %
12.03.2026 20:42 9,9 °C 8,9 °C 5,6 °C 73 % 1016,2 hPa 0,0 l/m² 0 min 0 W/m² 16,1 km/h (3 Bft) 97,87 %
12.03.2026 20:44 9,9 °C 8,9 °C 5,0 °C 72 % 1016,2 hPa 0,0 l/m² 0 min 0 W/m² 22,5 km/h (4 Bft) 100,00 %
12.03.2026 20:46 9,9 °C 8,9 °C 5,6 °C 73 % 1016,3 hPa 0,0 l/m² 0 min 0 W/m² 22,5 km/h (4 Bft) 100,00 %
12.03.2026 20:48 9,9 °C 8,9 °C 5,6 °C 73 % 1016,2 hPa 0,0 l/m² 0 min 0 W/m² 16,1 km/h (3 Bft) 100,00 %
12.03.2026 20:50 9,9 °C 8,9 °C 5,6 °C 73 % 1016,2 hPa 0,0 l/m² 0 min 0 W/m² 12,9 km/h (3 Bft) 100,00 %
12.03.2026 20:52 9,9 °C 8,9 °C 5,0 °C 73 % 1016,2 hPa 0,0 l/m² 0 min 0 W/m² 16,1 km/h (3 Bft) 100,00 %
12.03.2026 20:54 9,9 °C 8,9 °C 5,0 °C 73 % 1016,2 hPa 0,0 l/m² 0 min 0 W/m² 12,9 km/h (3 Bft) 100,00 %
12.03.2026 20:56 9,8 °C 8,9 °C 5,0 °C 73 % 1016,2 hPa 0,0 l/m² 0 min 0 W/m² 16,1 km/h (3 Bft) 97,87 %
12.03.2026 20:58 9,8 °C 8,9 °C 5,0 °C 73 % 1016,1 hPa 0,0 l/m² 0 min 0 W/m² 16,1 km/h (3 Bft) 100,00 %
12.03.2026 21:00 9,8 °C 8,9 °C 5,0 °C 73 % 1016,1 hPa 0,0 l/m² 0 min 0 W/m² 9,7 km/h (2 Bft) 100,00 %
12.03.2026 21:02 9,8 °C 8,9 °C 5,6 °C 73 % 1016,1 hPa 0,0 l/m² 0 min 0 W/m² 16,1 km/h (3 Bft) 97,87 %
12.03.2026 21:04 9,8 °C 8,9 °C 5,6 °C 73 % 1016,1 hPa 0,0 l/m² 0 min 0 W/m² 16,1 km/h (3 Bft) 97,83 %
12.03.2026 21:06 9,8 °C 8,9 °C 5,6 °C 73 % 1016,0 hPa 0,0 l/m² 0 min 0 W/m² 16,1 km/h (3 Bft) 97,87 %
12.03.2026 21:08 9,8 °C 9,4 °C 5,6 °C 73 % 1016,0 hPa 0,0 l/m² 0 min 0 W/m² 16,1 km/h (3 Bft) 95,83 %
12.03.2026 21:10 9,8 °C 9,4 °C 5,6 °C 73 % 1016,0 hPa 0,0 l/m² 0 min 0 W/m² 16,1 km/h (3 Bft) 97,87 %
12.03.2026 21:12 9,9 °C 9,4 °C 5,6 °C 74 % 1016,0 hPa 0,0 l/m² 0 min 0 W/m² 22,5 km/h (4 Bft) 97,87 %
12.03.2026 21:14 9,9 °C 9,4 °C 5,6 °C 74 % 1016,1 hPa 0,0 l/m² 0 min 0 W/m² 12,9 km/h (3 Bft) 95,65 %
12.03.2026 21:16 9,9 °C 9,4 °C 5,6 °C 74 % 1016,0 hPa 0,0 l/m² 0 min 0 W/m² 19,3 km/h (3 Bft) 97,87 %
12.03.2026 21:18 9,9 °C 9,4 °C 5,6 °C 73 % 1016,0 hPa 0,0 l/m² 0 min 0 W/m² 16,1 km/h (3 Bft) 97,87 %
12.03.2026 21:20 9,9 °C 9,4 °C 5,6 °C 73 % 1015,9 hPa 0,0 l/m² 0 min 0 W/m² 12,9 km/h (3 Bft) 97,87 %
12.03.2026 21:22 9,9 °C 9,4 °C 5,6 °C 73 % 1015,9 hPa 0,0 l/m² 0 min 0 W/m² 19,3 km/h (3 Bft) 97,87 %
12.03.2026 21:24 9,9 °C 9,4 °C 5,6 °C 73 % 1015,9 hPa 0,0 l/m² 0 min 0 W/m² 19,3 km/h (3 Bft) 97,87 %
12.03.2026 21:26 9,9 °C 9,4 °C 5,6 °C 74 % 1016,0 hPa 0,0 l/m² 0 min 0 W/m² 12,9 km/h (3 Bft) 95,65 %
12.03.2026 21:28 9,9 °C 9,4 °C 5,6 °C 74 % 1015,9 hPa 0,0 l/m² 0 min 0 W/m² 16,1 km/h (3 Bft) 95,74 %
12.03.2026 21:30 9,9 °C 9,4 °C 5,6 °C 74 % 1015,8 hPa 0,0 l/m² 0 min 0 W/m² 19,3 km/h (3 Bft) 97,87 %
12.03.2026 21:32 9,9 °C 9,4 °C 5,6 °C 74 % 1015,9 hPa 0,0 l/m² 0 min 0 W/m² 19,3 km/h (3 Bft) 95,74 %
12.03.2026 21:34 9,9 °C 9,4 °C 5,6 °C 74 % 1015,8 hPa 0,0 l/m² 0 min 0 W/m² 16,1 km/h (3 Bft) 97,87 %
12.03.2026 21:36 9,9 °C 9,4 °C 5,6 °C 74 % 1015,8 hPa 0,0 l/m² 0 min 0 W/m² 12,9 km/h (3 Bft) 97,87 %
12.03.2026 21:38 9,9 °C 8,9 °C 5,6 °C 74 % 1015,8 hPa 0,0 l/m² 0 min 0 W/m² 12,9 km/h (3 Bft) 97,83 %
12.03.2026 21:40 9,9 °C 8,9 °C 5,6 °C 74 % 1015,7 hPa 0,0 l/m² 0 min 0 W/m² 12,9 km/h (3 Bft) 97,87 %
12.03.2026 21:42 9,9 °C 8,9 °C 5,6 °C 74 % 1015,7 hPa 0,0 l/m² 0 min 0 W/m² 12,9 km/h (3 Bft) 97,87 %
12.03.2026 21:44 9,9 °C 8,9 °C 5,6 °C 74 % 1015,7 hPa 0,0 l/m² 0 min 0 W/m² 19,3 km/h (3 Bft) 97,87 %
12.03.2026 21:46 9,9 °C 8,9 °C 5,6 °C 74 % 1015,7 hPa 0,0 l/m² 0 min 0 W/m² 22,5 km/h (4 Bft) 100,00 %
12.03.2026 21:48 9,9 °C 8,9 °C 5,0 °C 75 % 1015,7 hPa 0,0 l/m² 0 min 0 W/m² 19,3 km/h (3 Bft) 100,00 %
12.03.2026 21:50 9,9 °C 8,9 °C 5,0 °C 75 % 1015,7 hPa 0,0 l/m² 0 min 0 W/m² 12,9 km/h (3 Bft) 95,65 %
12.03.2026 21:52 9,8 °C 8,9 °C 5,0 °C 75 % 1015,6 hPa 0,0 l/m² 0 min 0 W/m² 16,1 km/h (3 Bft) 95,74 %
12.03.2026 21:54 9,8 °C 8,9 °C 5,0 °C 75 % 1015,6 hPa 0,0 l/m² 0 min 0 W/m² 19,3 km/h (3 Bft) 93,62 %
12.03.2026 21:56 9,8 °C 8,9 °C 5,0 °C 75 % 1015,6 hPa 0,0 l/m² 0 min 0 W/m² 12,9 km/h (3 Bft) 95,74 %
12.03.2026 21:58 9,8 °C 8,9 °C 5,0 °C 75 % 1015,6 hPa 0,0 l/m² 0 min 0 W/m² 12,9 km/h (3 Bft) 94,44 %
12.03.2026 22:00 9,8 °C 8,9 °C 5,0 °C 75 % 1015,6 hPa 0,0 l/m² 0 min 0 W/m² 16,1 km/h (3 Bft) 95,74 %
12.03.2026 22:02 9,8 °C 8,9 °C 5,0 °C 75 % 1015,5 hPa 0,0 l/m² 0 min 0 W/m² 9,7 km/h (2 Bft) 95,74 %
12.03.2026 22:04 9,7 °C 8,9 °C 5,0 °C 75 % 1015,5 hPa 0,0 l/m² 0 min 0 W/m² 12,9 km/h (3 Bft) 95,74 %
12.03.2026 22:06 9,7 °C 8,3 °C 5,0 °C 75 % 1015,5 hPa 0,0 l/m² 0 min 0 W/m² 12,9 km/h (3 Bft) 96,30 %
12.03.2026 22:08 9,7 °C 8,3 °C 5,0 °C 76 % 1015,5 hPa 0,0 l/m² 0 min 0 W/m² 12,9 km/h (3 Bft) 94,12 %
12.03.2026 22:10 9,7 °C 8,3 °C 5,0 °C 76 % 1015,5 hPa 0,0 l/m² 0 min 0 W/m² 16,1 km/h (3 Bft) 95,74 %
12.03.2026 22:12 9,7 °C 8,3 °C 5,0 °C 76 % 1015,4 hPa 0,0 l/m² 0 min 0 W/m² 9,7 km/h (2 Bft) 94,44 %
12.03.2026 22:14 9,7 °C 8,3 °C 5,0 °C 76 % 1015,5 hPa 0,0 l/m² 0 min 0 W/m² 12,9 km/h (3 Bft) 95,65 %
12.03.2026 22:16 9,6 °C 8,9 °C 5,0 °C 76 % 1015,4 hPa 0,0 l/m² 0 min 0 W/m² 22,5 km/h (4 Bft) 94,55 %
12.03.2026 22:18 9,6 °C 8,9 °C 5,0 °C 76 % 1015,4 hPa 0,0 l/m² 0 min 0 W/m² 16,1 km/h (3 Bft) 96,00 %
12.03.2026 22:20 9,6 °C 8,9 °C 5,0 °C 76 % 1015,4 hPa 0,0 l/m² 0 min 0 W/m² 22,5 km/h (4 Bft) 97,22 %
12.03.2026 22:22 9,6 °C 8,9 °C 5,0 °C 76 % 1015,4 hPa 0,0 l/m² 0 min 0 W/m² 9,7 km/h (2 Bft) 97,87 %
12.03.2026 22:24 9,6 °C 8,9 °C 5,0 °C 76 % 1015,5 hPa 0,0 l/m² 0 min 0 W/m² 19,3 km/h (3 Bft) 98,18 %
12.03.2026 22:26 9,6 °C 8,9 °C 5,0 °C 76 % 1015,4 hPa 0,0 l/m² 0 min 0 W/m² 16,1 km/h (3 Bft) 95,65 %
12.03.2026 22:28 9,6 °C 8,9 °C 5,0 °C 77 % 1015,5 hPa 0,0 l/m² 0 min 0 W/m² 16,1 km/h (3 Bft) 95,74 %
12.03.2026 22:30 9,6 °C 8,9 °C 5,0 °C 77 % 1015,4 hPa 0,0 l/m² 0 min 0 W/m² 19,3 km/h (3 Bft) 97,87 %
12.03.2026 22:32 9,6 °C 8,9 °C 5,0 °C 77 % 1015,4 hPa 0,0 l/m² 0 min 0 W/m² 19,3 km/h (3 Bft) 98,00 %
12.03.2026 22:34 9,6 °C 8,9 °C 5,0 °C 77 % 1015,4 hPa 0,0 l/m² 0 min 0 W/m² 9,7 km/h (2 Bft) 94,44 %
12.03.2026 22:36 9,6 °C 8,9 °C 5,0 °C 77 % 1015,4 hPa 0,0 l/m² 0 min 0 W/m² 19,3 km/h (3 Bft) 95,74 %
12.03.2026 22:38 9,6 °C 8,9 °C 5,0 °C 77 % 1015,3 hPa 0,0 l/m² 0 min 0 W/m² 16,1 km/h (3 Bft) 97,83 %
12.03.2026 22:40 9,6 °C 8,9 °C 5,0 °C 77 % 1015,2 hPa 0,0 l/m² 0 min 0 W/m² 16,1 km/h (3 Bft) 100,00 %
12.03.2026 22:42 9,6 °C 8,9 °C 5,0 °C 77 % 1015,3 hPa 0,0 l/m² 0 min 0 W/m² 12,9 km/h (3 Bft) 97,87 %
12.03.2026 22:44 9,6 °C 8,3 °C 5,0 °C 77 % 1015,2 hPa 0,0 l/m² 0 min 0 W/m² 19,3 km/h (3 Bft) 98,00 %
12.03.2026 22:46 9,6 °C 8,3 °C 5,0 °C 77 % 1015,2 hPa 0,0 l/m² 0 min 0 W/m² 16,1 km/h (3 Bft) 100,00 %
12.03.2026 22:48 9,6 °C 8,3 °C 5,0 °C 77 % 1015,1 hPa 0,0 l/m² 0 min 0 W/m² 16,1 km/h (3 Bft) 100,00 %
12.03.2026 22:50 9,6 °C 8,3 °C 5,0 °C 78 % 1015,1 hPa 0,0 l/m² 0 min 0 W/m² 16,1 km/h (3 Bft) 100,00 %
12.03.2026 22:52 9,6 °C 8,3 °C 5,0 °C 78 % 1015,0 hPa 0,0 l/m² 0 min 0 W/m² 16,1 km/h (3 Bft) 100,00 %
12.03.2026 22:54 9,6 °C 8,3 °C 5,0 °C 78 % 1014,9 hPa 0,0 l/m² 0 min 0 W/m² 22,5 km/h (4 Bft) 100,00 %
12.03.2026 22:56 9,6 °C 8,3 °C 5,0 °C 78 % 1014,9 hPa 0,0 l/m² 0 min 0 W/m² 19,3 km/h (3 Bft) 100,00 %
12.03.2026 22:58 9,6 °C 8,9 °C 5,0 °C 78 % 1014,9 hPa 0,0 l/m² 0 min 0 W/m² 19,3 km/h (3 Bft) 97,87 %
12.03.2026 23:00 9,6 °C 8,3 °C 5,0 °C 78 % 1014,9 hPa 0,0 l/m² 0 min 0 W/m² 12,9 km/h (3 Bft) 100,00 %
12.03.2026 23:02 9,6 °C 8,3 °C 5,0 °C 78 % 1014,9 hPa 0,0 l/m² 0 min 0 W/m² 12,9 km/h (3 Bft) 100,00 %
12.03.2026 23:04 9,6 °C 8,3 °C 5,0 °C 78 % 1014,9 hPa 0,0 l/m² 0 min 0 W/m² 16,1 km/h (3 Bft) 100,00 %
12.03.2026 23:06 9,6 °C 8,3 °C 5,0 °C 78 % 1014,9 hPa 0,0 l/m² 0 min 0 W/m² 22,5 km/h (4 Bft) 100,00 %
12.03.2026 23:08 9,6 °C 8,3 °C 5,0 °C 78 % 1014,9 hPa 0,0 l/m² 0 min 0 W/m² 19,3 km/h (3 Bft) 100,00 %
12.03.2026 23:10 9,6 °C 8,9 °C 5,0 °C 78 % 1014,9 hPa 0,0 l/m² 0 min 0 W/m² 29,0 km/h (5 Bft) 100,00 %
12.03.2026 23:12 9,6 °C 8,9 °C 5,0 °C 78 % 1014,9 hPa 0,0 l/m² 0 min 0 W/m² 16,1 km/h (3 Bft) 100,00 %
12.03.2026 23:14 9,6 °C 8,3 °C 5,0 °C 78 % 1014,9 hPa 0,0 l/m² 0 min 0 W/m² 16,1 km/h (3 Bft) 97,83 %
12.03.2026 23:16 9,5 °C 8,3 °C 5,0 °C 78 % 1014,8 hPa 0,0 l/m² 0 min 0 W/m² 22,5 km/h (4 Bft) 100,00 %
12.03.2026 23:18 9,5 °C 8,3 °C 5,0 °C 77 % 1014,8 hPa 0,0 l/m² 0 min 0 W/m² 19,3 km/h (3 Bft) 100,00 %
12.03.2026 23:20 9,5 °C 8,3 °C 5,0 °C 77 % 1014,8 hPa 0,0 l/m² 0 min 0 W/m² 16,1 km/h (3 Bft) 100,00 %
12.03.2026 23:22 9,5 °C 8,3 °C 5,0 °C 77 % 1014,7 hPa 0,0 l/m² 0 min 0 W/m² 22,5 km/h (4 Bft) 100,00 %
12.03.2026 23:24 9,5 °C 8,3 °C 5,0 °C 77 % 1014,7 hPa 0,0 l/m² 0 min 0 W/m² 22,5 km/h (4 Bft) 93,62 %
12.03.2026 23:26 9,5 °C 8,3 °C 5,0 °C 77 % 1014,6 hPa 0,0 l/m² 0 min 0 W/m² 19,3 km/h (3 Bft) 100,00 %
12.03.2026 23:28 9,5 °C 8,3 °C 5,0 °C 77 % 1014,6 hPa 0,0 l/m² 0 min 0 W/m² 16,1 km/h (3 Bft) 97,87 %
12.03.2026 23:30 9,4 °C 8,3 °C 5,0 °C 77 % 1014,6 hPa 0,0 l/m² 0 min 0 W/m² 19,3 km/h (3 Bft) 97,87 %
12.03.2026 23:32 9,4 °C 8,3 °C 5,0 °C 77 % 1014,6 hPa 0,0 l/m² 0 min 0 W/m² 12,9 km/h (3 Bft) 97,87 %
12.03.2026 23:34 9,4 °C 8,3 °C 5,0 °C 77 % 1014,6 hPa 0,0 l/m² 0 min 0 W/m² 22,5 km/h (4 Bft) 95,74 %
12.03.2026 23:36 9,4 °C 8,3 °C 4,4 °C 77 % 1014,5 hPa 0,0 l/m² 0 min 0 W/m² 22,5 km/h (4 Bft) 95,74 %
12.03.2026 23:38 9,4 °C 8,3 °C 5,0 °C 77 % 1014,5 hPa 0,0 l/m² 0 min 0 W/m² 19,3 km/h (3 Bft) 97,83 %
12.03.2026 23:40 9,4 °C 8,3 °C 5,0 °C 77 % 1014,4 hPa 0,0 l/m² 0 min 0 W/m² 19,3 km/h (3 Bft) 95,74 %
12.03.2026 23:42 9,3 °C 8,3 °C 5,0 °C 77 % 1014,3 hPa 0,0 l/m² 0 min 0 W/m² 12,9 km/h (3 Bft) 97,87 %
12.03.2026 23:44 9,3 °C 8,3 °C 5,0 °C 77 % 1014,4 hPa 0,0 l/m² 0 min 0 W/m² 22,5 km/h (4 Bft) 95,74 %
12.03.2026 23:46 9,3 °C 8,3 °C 4,4 °C 77 % 1014,3 hPa 0,0 l/m² 0 min 0 W/m² 16,1 km/h (3 Bft) 93,62 %
12.03.2026 23:48 9,3 °C 8,3 °C 5,0 °C 77 % 1014,2 hPa 0,0 l/m² 0 min 0 W/m² 19,3 km/h (3 Bft) 95,74 %
12.03.2026 23:50 9,3 °C 8,3 °C 4,4 °C 77 % 1014,2 hPa 0,0 l/m² 0 min 0 W/m² 19,3 km/h (3 Bft) 95,65 %
12.03.2026 23:52 9,3 °C 8,3 °C 4,4 °C 77 % 1014,2 hPa 0,0 l/m² 0 min 0 W/m² 19,3 km/h (3 Bft) 95,74 %
12.03.2026 23:54 9,3 °C 8,3 °C 4,4 °C 77 % 1014,1 hPa 0,0 l/m² 0 min 0 W/m² 16,1 km/h (3 Bft) 93,62 %
12.03.2026 23:56 9,3 °C 8,3 °C 5,0 °C 77 % 1014,1 hPa 0,0 l/m² 0 min 0 W/m² 25,7 km/h (4 Bft) 95,74 %
12.03.2026 23:58 9,3 °C 8,3 °C 4,4 °C 77 % 1014,0 hPa 0,0 l/m² 0 min 0 W/m² 22,5 km/h (4 Bft) 93,75 %
_ Min-Zeit 00:04 00:00 00:00 16:06 23:58 - - - 00:00 00:02
Minimum _ 4,6 °C 3,3 °C 0,0 °C 60 % 1014,0 hPa - - - 0,0 km/h (0 Bft) 9,52 %
_ Max-Zeit 14:12 13:56 11:26 08:06 09:40 04:32 12:12 12:40 12:12 00:07
Maximum _ 13,6 °C 18,9 °C 12,8 °C 96 % 1022,8 hPa 0,2 l/m² 4 min 789 W/m² 57,9 km/h
S-SW (7 Bft)
100,00 %
Durchschnitt _ 8,9 °C 9,4 °C 5,0 °C 80 % 1019,4 hPa #0,2 l/m² #7:08 h 270 W/m² 19,4 km/h (3 Bft) 97,15 %
© 2026 W. Hausmann